<?xml version='1.0' encoding='UTF-8'?>
<gpx version="1.1" creator="https://www.komoot.de" xmlns="http://www.topografix.com/GPX/1/1" xmlns:xsi="http://www.w3.org/2001/XMLSchema-instance" xsi:schemaLocation="http://www.topografix.com/GPX/1/1 http://www.topografix.com/GPX/1/1/gpx.xsd">
  <metadata>
    <name>Tour 7-zum Donoperteich-LE-DT-Hiddesen-Donoper-Retoure-41,6km</name>
    <author>
      <link href="https://www.komoot.de">
        <text>komoot</text>
        <type>text/html</type>
      </link>
    </author>
  </metadata>
  <wpt lat="51.927474" lon="8.805462">
    <name>Donoper Teich</name>
    <sym>Flag, Blue</sym>
  </wpt>
  <trk>
    <name>Tour 7-zum Donoperteich-LE-DT-Hiddesen-Donoper-Retoure-41,6km</name>
    <type>e_touring_bicycle</type>
    <trkseg>
      <trkpt lat="52.024320" lon="8.907016">
        <ele>98.189003</ele>
        <time>2026-06-30T13:01:58.282Z</time>
      </trkpt>
      <trkpt lat="52.024216" lon="8.906957">
        <ele>98.189003</ele>
        <time>2026-06-30T13:02:05.938Z</time>
      </trkpt>
      <trkpt lat="52.024396" lon="8.906385">
        <ele>98.189003</ele>
        <time>2026-06-30T13:02:15.366Z</time>
      </trkpt>
      <trkpt lat="52.024340" lon="8.906308">
        <ele>98.189003</ele>
        <time>2026-06-30T13:02:16.954Z</time>
      </trkpt>
      <trkpt lat="52.024136" lon="8.906030">
        <ele>98.189003</ele>
        <time>2026-06-30T13:02:22.721Z</time>
      </trkpt>
      <trkpt lat="52.023984" lon="8.905573">
        <ele>98.263588</ele>
        <time>2026-06-30T13:02:29.653Z</time>
      </trkpt>
      <trkpt lat="52.023846" lon="8.904631">
        <ele>98.431038</ele>
        <time>2026-06-30T13:02:42.346Z</time>
      </trkpt>
      <trkpt lat="52.023851" lon="8.904259">
        <ele>98.495383</ele>
        <time>2026-06-30T13:02:47.241Z</time>
      </trkpt>
      <trkpt lat="52.023872" lon="8.904100">
        <ele>98.523504</ele>
        <time>2026-06-30T13:02:49.390Z</time>
      </trkpt>
      <trkpt lat="52.023892" lon="8.904000">
        <ele>98.541688</ele>
        <time>2026-06-30T13:02:50.774Z</time>
      </trkpt>
      <trkpt lat="52.023946" lon="8.903493">
        <ele>98.630666</ele>
        <time>2026-06-30T13:02:57.671Z</time>
      </trkpt>
      <trkpt lat="52.023918" lon="8.901989">
        <ele>98.898121</ele>
        <time>2026-06-30T13:03:17.967Z</time>
      </trkpt>
      <trkpt lat="52.023986" lon="8.901106">
        <ele>99.057691</ele>
        <time>2026-06-30T13:03:29.751Z</time>
      </trkpt>
      <trkpt lat="52.024077" lon="8.899614">
        <ele>99.938773</ele>
        <time>2026-06-30T13:03:49.210Z</time>
      </trkpt>
      <trkpt lat="52.024100" lon="8.899368">
        <ele>100.236513</ele>
        <time>2026-06-30T13:03:52.470Z</time>
      </trkpt>
      <trkpt lat="52.024068" lon="8.899374">
        <ele>100.299154</ele>
        <time>2026-06-30T13:03:53.197Z</time>
      </trkpt>
      <trkpt lat="52.023849" lon="8.899407">
        <ele>100.726857</ele>
        <time>2026-06-30T13:03:58.083Z</time>
      </trkpt>
      <trkpt lat="52.023674" lon="8.899411">
        <ele>101.067201</ele>
        <time>2026-06-30T13:04:02.213Z</time>
      </trkpt>
      <trkpt lat="52.023588" lon="8.899390">
        <ele>101.236318</ele>
        <time>2026-06-30T13:04:04.274Z</time>
      </trkpt>
      <trkpt lat="52.023537" lon="8.899502">
        <ele>101.403043</ele>
        <time>2026-06-30T13:04:06.283Z</time>
      </trkpt>
      <trkpt lat="52.023348" lon="8.899599">
        <ele>101.788472</ele>
        <time>2026-06-30T13:04:11.005Z</time>
      </trkpt>
      <trkpt lat="52.023324" lon="8.899495">
        <ele>101.921383</ele>
        <time>2026-06-30T13:04:12.961Z</time>
      </trkpt>
      <trkpt lat="52.023089" lon="8.899622">
        <ele>102.402979</ele>
        <time>2026-06-30T13:04:20.203Z</time>
      </trkpt>
      <trkpt lat="52.023075" lon="8.899646">
        <ele>102.442551</ele>
        <time>2026-06-30T13:04:20.815Z</time>
      </trkpt>
      <trkpt lat="52.022876" lon="8.899654">
        <ele>103.024736</ele>
        <time>2026-06-30T13:04:26.903Z</time>
      </trkpt>
      <trkpt lat="52.022793" lon="8.899667">
        <ele>103.466029</ele>
        <time>2026-06-30T13:04:29.494Z</time>
      </trkpt>
      <trkpt lat="52.022794" lon="8.899637">
        <ele>103.563869</ele>
        <time>2026-06-30T13:04:29.989Z</time>
      </trkpt>
      <trkpt lat="52.022794" lon="8.899612">
        <ele>103.645283</ele>
        <time>2026-06-30T13:04:30.408Z</time>
      </trkpt>
      <trkpt lat="52.022801" lon="8.899414">
        <ele>104.291149</ele>
        <time>2026-06-30T13:04:33.742Z</time>
      </trkpt>
      <trkpt lat="52.022705" lon="8.899513">
        <ele>104.892866</ele>
        <time>2026-06-30T13:04:36.882Z</time>
      </trkpt>
      <trkpt lat="52.022683" lon="8.899617">
        <ele>105.251004</ele>
        <time>2026-06-30T13:04:38.766Z</time>
      </trkpt>
      <trkpt lat="52.022670" lon="8.899678">
        <ele>105.461232</ele>
        <time>2026-06-30T13:04:39.894Z</time>
      </trkpt>
      <trkpt lat="52.022332" lon="8.899593">
        <ele>107.271304</ele>
        <time>2026-06-30T13:04:49.877Z</time>
      </trkpt>
      <trkpt lat="52.021981" lon="8.899493">
        <ele>109.157214</ele>
        <time>2026-06-30T13:05:00.232Z</time>
      </trkpt>
      <trkpt lat="52.021367" lon="8.899321">
        <ele>112.309689</ele>
        <time>2026-06-30T13:05:17.129Z</time>
      </trkpt>
      <trkpt lat="52.021224" lon="8.899213">
        <ele>112.593057</ele>
        <time>2026-06-30T13:05:21.181Z</time>
      </trkpt>
      <trkpt lat="52.020953" lon="8.898970">
        <ele>113.149261</ele>
        <time>2026-06-30T13:05:28.793Z</time>
      </trkpt>
      <trkpt lat="52.020901" lon="8.898928">
        <ele>113.253610</ele>
        <time>2026-06-30T13:05:30.182Z</time>
      </trkpt>
      <trkpt lat="52.020279" lon="8.898426">
        <ele>114.501606</ele>
        <time>2026-06-30T13:05:46.059Z</time>
      </trkpt>
      <trkpt lat="52.019783" lon="8.898084">
        <ele>115.466271</ele>
        <time>2026-06-30T13:05:57.341Z</time>
      </trkpt>
      <trkpt lat="52.019676" lon="8.898034">
        <ele>115.379072</ele>
        <time>2026-06-30T13:05:59.583Z</time>
      </trkpt>
      <trkpt lat="52.019296" lon="8.897967">
        <ele>115.079706</ele>
        <time>2026-06-30T13:06:07.124Z</time>
      </trkpt>
      <trkpt lat="52.019129" lon="8.897880">
        <ele>114.942353</ele>
        <time>2026-06-30T13:06:10.539Z</time>
      </trkpt>
      <trkpt lat="52.018499" lon="8.897354">
        <ele>114.387611</ele>
        <time>2026-06-30T13:06:24.175Z</time>
      </trkpt>
      <trkpt lat="52.018432" lon="8.897310">
        <ele>114.331012</ele>
        <time>2026-06-30T13:06:25.540Z</time>
      </trkpt>
      <trkpt lat="52.018370" lon="8.897258">
        <ele>114.276367</ele>
        <time>2026-06-30T13:06:26.881Z</time>
      </trkpt>
      <trkpt lat="52.018011" lon="8.896748">
        <ele>114.016634</ele>
        <time>2026-06-30T13:06:36.152Z</time>
      </trkpt>
      <trkpt lat="52.017698" lon="8.896259">
        <ele>113.924912</ele>
        <time>2026-06-30T13:06:44.909Z</time>
      </trkpt>
      <trkpt lat="52.017625" lon="8.896164">
        <ele>113.905155</ele>
        <time>2026-06-30T13:06:46.855Z</time>
      </trkpt>
      <trkpt lat="52.017411" lon="8.895903">
        <ele>113.848632</ele>
        <time>2026-06-30T13:06:52.486Z</time>
      </trkpt>
      <trkpt lat="52.017073" lon="8.895568">
        <ele>113.764998</ele>
        <time>2026-06-30T13:07:00.839Z</time>
      </trkpt>
      <trkpt lat="52.016916" lon="8.895413">
        <ele>113.726191</ele>
        <time>2026-06-30T13:07:04.786Z</time>
      </trkpt>
      <trkpt lat="52.016800" lon="8.895210">
        <ele>113.690178</ele>
        <time>2026-06-30T13:07:08.467Z</time>
      </trkpt>
      <trkpt lat="52.016712" lon="8.894966">
        <ele>113.732099</ele>
        <time>2026-06-30T13:07:12.281Z</time>
      </trkpt>
      <trkpt lat="52.016678" lon="8.894870">
        <ele>113.762518</ele>
        <time>2026-06-30T13:07:13.763Z</time>
      </trkpt>
      <trkpt lat="52.016417" lon="8.893996">
        <ele>114.029315</ele>
        <time>2026-06-30T13:07:26.729Z</time>
      </trkpt>
      <trkpt lat="52.016211" lon="8.893452">
        <ele>114.204734</ele>
        <time>2026-06-30T13:07:35.127Z</time>
      </trkpt>
      <trkpt lat="52.015777" lon="8.892400">
        <ele>114.684338</ele>
        <time>2026-06-30T13:07:52.312Z</time>
      </trkpt>
      <trkpt lat="52.015238" lon="8.891094">
        <ele>115.915181</ele>
        <time>2026-06-30T13:08:14.223Z</time>
      </trkpt>
      <trkpt lat="52.014902" lon="8.890264">
        <ele>116.692813</ele>
        <time>2026-06-30T13:08:28.399Z</time>
      </trkpt>
      <trkpt lat="52.014894" lon="8.890106">
        <ele>116.829440</ele>
        <time>2026-06-30T13:08:30.675Z</time>
      </trkpt>
      <trkpt lat="52.014929" lon="8.889950">
        <ele>116.993350</ele>
        <time>2026-06-30T13:08:33.042Z</time>
      </trkpt>
      <trkpt lat="52.014677" lon="8.889770">
        <ele>117.434877</ele>
        <time>2026-06-30T13:08:39.407Z</time>
      </trkpt>
      <trkpt lat="52.014368" lon="8.889550">
        <ele>117.975991</ele>
        <time>2026-06-30T13:08:47.184Z</time>
      </trkpt>
      <trkpt lat="52.013952" lon="8.889250">
        <ele>118.706003</ele>
        <time>2026-06-30T13:08:57.728Z</time>
      </trkpt>
      <trkpt lat="52.013664" lon="8.889043">
        <ele>119.211119</ele>
        <time>2026-06-30T13:09:05.083Z</time>
      </trkpt>
      <trkpt lat="52.012279" lon="8.888038">
        <ele>121.107827</ele>
        <time>2026-06-30T13:09:39.461Z</time>
      </trkpt>
      <trkpt lat="52.011734" lon="8.887663">
        <ele>121.812761</ele>
        <time>2026-06-30T13:09:52.686Z</time>
      </trkpt>
      <trkpt lat="52.011435" lon="8.887446">
        <ele>122.306147</ele>
        <time>2026-06-30T13:10:00.065Z</time>
      </trkpt>
      <trkpt lat="52.010708" lon="8.886917">
        <ele>123.506311</ele>
        <time>2026-06-30T13:10:18.408Z</time>
      </trkpt>
      <trkpt lat="52.010342" lon="8.886657">
        <ele>124.108149</ele>
        <time>2026-06-30T13:10:27.717Z</time>
      </trkpt>
      <trkpt lat="52.010312" lon="8.886635">
        <ele>124.157739</ele>
        <time>2026-06-30T13:10:28.477Z</time>
      </trkpt>
      <trkpt lat="52.010010" lon="8.886411">
        <ele>124.630881</ele>
        <time>2026-06-30T13:10:36.200Z</time>
      </trkpt>
      <trkpt lat="52.009774" lon="8.886245">
        <ele>124.962185</ele>
        <time>2026-06-30T13:10:42.175Z</time>
      </trkpt>
      <trkpt lat="52.009763" lon="8.886160">
        <ele>125.031060</ele>
        <time>2026-06-30T13:10:43.409Z</time>
      </trkpt>
      <trkpt lat="52.009597" lon="8.885983">
        <ele>125.286858</ele>
        <time>2026-06-30T13:10:47.996Z</time>
      </trkpt>
      <trkpt lat="52.008486" lon="8.885194">
        <ele>126.827389</ele>
        <time>2026-06-30T13:11:15.367Z</time>
      </trkpt>
      <trkpt lat="52.007535" lon="8.884509">
        <ele>127.690245</ele>
        <time>2026-06-30T13:11:38.455Z</time>
      </trkpt>
      <trkpt lat="52.006531" lon="8.883775">
        <ele>128.659166</ele>
        <time>2026-06-30T13:12:03.027Z</time>
      </trkpt>
      <trkpt lat="52.005948" lon="8.883388">
        <ele>129.271637</ele>
        <time>2026-06-30T13:12:17.132Z</time>
      </trkpt>
      <trkpt lat="52.004997" lon="8.882718">
        <ele>130.458850</ele>
        <time>2026-06-30T13:12:40.539Z</time>
      </trkpt>
      <trkpt lat="52.004817" lon="8.882645">
        <ele>130.768466</ele>
        <time>2026-06-30T13:12:44.735Z</time>
      </trkpt>
      <trkpt lat="52.003678" lon="8.881815">
        <ele>132.851801</ele>
        <time>2026-06-30T13:13:13.645Z</time>
      </trkpt>
      <trkpt lat="52.003177" lon="8.881314">
        <ele>134.172536</ele>
        <time>2026-06-30T13:13:27.681Z</time>
      </trkpt>
      <trkpt lat="52.002851" lon="8.880812">
        <ele>135.238815</ele>
        <time>2026-06-30T13:13:38.426Z</time>
      </trkpt>
      <trkpt lat="52.002671" lon="8.880405">
        <ele>135.971135</ele>
        <time>2026-06-30T13:13:45.695Z</time>
      </trkpt>
      <trkpt lat="52.002616" lon="8.880257">
        <ele>136.223761</ele>
        <time>2026-06-30T13:13:48.211Z</time>
      </trkpt>
      <trkpt lat="52.002576" lon="8.880143">
        <ele>136.415510</ele>
        <time>2026-06-30T13:13:50.107Z</time>
      </trkpt>
      <trkpt lat="52.002496" lon="8.880044">
        <ele>136.654237</ele>
        <time>2026-06-30T13:13:52.496Z</time>
      </trkpt>
      <trkpt lat="52.002399" lon="8.879835">
        <ele>137.036723</ele>
        <time>2026-06-30T13:13:56.295Z</time>
      </trkpt>
      <trkpt lat="52.002314" lon="8.879618">
        <ele>137.419856</ele>
        <time>2026-06-30T13:14:00.047Z</time>
      </trkpt>
      <trkpt lat="52.002119" lon="8.879260">
        <ele>138.163827</ele>
        <time>2026-06-30T13:14:06.969Z</time>
      </trkpt>
      <trkpt lat="52.002081" lon="8.879296">
        <ele>138.275041</ele>
        <time>2026-06-30T13:14:08.006Z</time>
      </trkpt>
      <trkpt lat="52.001995" lon="8.879410">
        <ele>138.555669</ele>
        <time>2026-06-30T13:14:10.628Z</time>
      </trkpt>
      <trkpt lat="52.001944" lon="8.879593">
        <ele>138.868315</ele>
        <time>2026-06-30T13:14:13.526Z</time>
      </trkpt>
      <trkpt lat="52.001563" lon="8.881096">
        <ele>141.398142</ele>
        <time>2026-06-30T13:14:37.297Z</time>
      </trkpt>
      <trkpt lat="52.001486" lon="8.881356">
        <ele>141.847198</ele>
        <time>2026-06-30T13:14:41.647Z</time>
      </trkpt>
      <trkpt lat="52.001400" lon="8.881540">
        <ele>142.331190</ele>
        <time>2026-06-30T13:14:45.131Z</time>
      </trkpt>
      <trkpt lat="52.001332" lon="8.881605">
        <ele>142.599824</ele>
        <time>2026-06-30T13:14:47.086Z</time>
      </trkpt>
      <trkpt lat="51.999377" lon="8.882461">
        <ele>148.889657</ele>
        <time>2026-06-30T13:15:37.305Z</time>
      </trkpt>
      <trkpt lat="51.998997" lon="8.882511">
        <ele>149.672553</ele>
        <time>2026-06-30T13:15:46.594Z</time>
      </trkpt>
      <trkpt lat="51.998669" lon="8.882471">
        <ele>150.348005</ele>
        <time>2026-06-30T13:15:54.347Z</time>
      </trkpt>
      <trkpt lat="51.998335" lon="8.882430">
        <ele>151.035838</ele>
        <time>2026-06-30T13:16:02.023Z</time>
      </trkpt>
      <trkpt lat="51.998089" lon="8.882392">
        <ele>151.543285</ele>
        <time>2026-06-30T13:16:07.458Z</time>
      </trkpt>
      <trkpt lat="51.998090" lon="8.882267">
        <ele>151.644936</ele>
        <time>2026-06-30T13:16:09.117Z</time>
      </trkpt>
      <trkpt lat="51.997253" lon="8.882131">
        <ele>150.668400</ele>
        <time>2026-06-30T13:16:25.256Z</time>
      </trkpt>
      <trkpt lat="51.996312" lon="8.881978">
        <ele>149.578642</ele>
        <time>2026-06-30T13:16:41.834Z</time>
      </trkpt>
      <trkpt lat="51.996019" lon="8.881862">
        <ele>149.652037</ele>
        <time>2026-06-30T13:16:47.657Z</time>
      </trkpt>
      <trkpt lat="51.995665" lon="8.881775">
        <ele>149.739170</ele>
        <time>2026-06-30T13:16:54.954Z</time>
      </trkpt>
      <trkpt lat="51.995083" lon="8.881807">
        <ele>149.880891</ele>
        <time>2026-06-30T13:17:07.750Z</time>
      </trkpt>
      <trkpt lat="51.994249" lon="8.881788">
        <ele>150.512176</ele>
        <time>2026-06-30T13:17:26.898Z</time>
      </trkpt>
      <trkpt lat="51.993412" lon="8.881521">
        <ele>152.009940</ele>
        <time>2026-06-30T13:17:46.684Z</time>
      </trkpt>
      <trkpt lat="51.992979" lon="8.881441">
        <ele>152.775145</ele>
        <time>2026-06-30T13:17:56.822Z</time>
      </trkpt>
      <trkpt lat="51.992185" lon="8.881260">
        <ele>154.145517</ele>
        <time>2026-06-30T13:18:15.584Z</time>
      </trkpt>
      <trkpt lat="51.992003" lon="8.881162">
        <ele>154.469703</ele>
        <time>2026-06-30T13:18:20.045Z</time>
      </trkpt>
      <trkpt lat="51.991937" lon="8.881235">
        <ele>154.604715</ele>
        <time>2026-06-30T13:18:21.906Z</time>
      </trkpt>
      <trkpt lat="51.991816" lon="8.881213">
        <ele>154.810571</ele>
        <time>2026-06-30T13:18:24.737Z</time>
      </trkpt>
      <trkpt lat="51.990862" lon="8.880915">
        <ele>156.450723</ele>
        <time>2026-06-30T13:18:46.963Z</time>
      </trkpt>
      <trkpt lat="51.989993" lon="8.880721">
        <ele>157.919063</ele>
        <time>2026-06-30T13:19:07.019Z</time>
      </trkpt>
      <trkpt lat="51.989863" lon="8.880695">
        <ele>158.138320</ele>
        <time>2026-06-30T13:19:10.044Z</time>
      </trkpt>
      <trkpt lat="51.989596" lon="8.880613">
        <ele>158.593186</ele>
        <time>2026-06-30T13:19:16.343Z</time>
      </trkpt>
      <trkpt lat="51.988819" lon="8.880701">
        <ele>160.140425</ele>
        <time>2026-06-30T13:19:34.696Z</time>
      </trkpt>
      <trkpt lat="51.988216" lon="8.880816">
        <ele>161.524924</ele>
        <time>2026-06-30T13:19:49.158Z</time>
      </trkpt>
      <trkpt lat="51.987200" lon="8.881144">
        <ele>163.885454</ele>
        <time>2026-06-30T13:20:13.552Z</time>
      </trkpt>
      <trkpt lat="51.986634" lon="8.881669">
        <ele>165.367504</ele>
        <time>2026-06-30T13:20:28.747Z</time>
      </trkpt>
      <trkpt lat="51.986524" lon="8.881770">
        <ele>165.654822</ele>
        <time>2026-06-30T13:20:31.723Z</time>
      </trkpt>
      <trkpt lat="51.986097" lon="8.882381">
        <ele>166.948847</ele>
        <time>2026-06-30T13:20:45.165Z</time>
      </trkpt>
      <trkpt lat="51.985303" lon="8.883396">
        <ele>169.771101</ele>
        <time>2026-06-30T13:21:09.546Z</time>
      </trkpt>
      <trkpt lat="51.985088" lon="8.883745">
        <ele>170.660442</ele>
        <time>2026-06-30T13:21:17.015Z</time>
      </trkpt>
      <trkpt lat="51.984651" lon="8.884694">
        <ele>172.778266</ele>
        <time>2026-06-30T13:21:34.831Z</time>
      </trkpt>
      <trkpt lat="51.984574" lon="8.884793">
        <ele>173.024014</ele>
        <time>2026-06-30T13:21:37.217Z</time>
      </trkpt>
      <trkpt lat="51.984028" lon="8.886082">
        <ele>175.434792</ele>
        <time>2026-06-30T13:22:00.173Z</time>
      </trkpt>
      <trkpt lat="51.983434" lon="8.887379">
        <ele>177.969793</ele>
        <time>2026-06-30T13:22:23.502Z</time>
      </trkpt>
      <trkpt lat="51.983383" lon="8.887387">
        <ele>178.105591</ele>
        <time>2026-06-30T13:22:24.698Z</time>
      </trkpt>
      <trkpt lat="51.983324" lon="8.887474">
        <ele>178.316824</ele>
        <time>2026-06-30T13:22:26.577Z</time>
      </trkpt>
      <trkpt lat="51.982637" lon="8.888975">
        <ele>181.369449</ele>
        <time>2026-06-30T13:22:54.177Z</time>
      </trkpt>
      <trkpt lat="51.982431" lon="8.889422">
        <ele>182.392270</ele>
        <time>2026-06-30T13:23:02.621Z</time>
      </trkpt>
      <trkpt lat="51.982382" lon="8.889634">
        <ele>182.884703</ele>
        <time>2026-06-30T13:23:06.051Z</time>
      </trkpt>
      <trkpt lat="51.982251" lon="8.889840">
        <ele>183.528634</ele>
        <time>2026-06-30T13:23:10.561Z</time>
      </trkpt>
      <trkpt lat="51.982098" lon="8.889995">
        <ele>184.165401</ele>
        <time>2026-06-30T13:23:15.034Z</time>
      </trkpt>
      <trkpt lat="51.980933" lon="8.891818">
        <ele>189.682809</ele>
        <time>2026-06-30T13:23:55.499Z</time>
      </trkpt>
      <trkpt lat="51.979631" lon="8.893807">
        <ele>193.745056</ele>
        <time>2026-06-30T13:24:38.803Z</time>
      </trkpt>
      <trkpt lat="51.979555" lon="8.893928">
        <ele>193.716652</ele>
        <time>2026-06-30T13:24:41.196Z</time>
      </trkpt>
      <trkpt lat="51.979555" lon="8.893981">
        <ele>193.707941</ele>
        <time>2026-06-30T13:24:41.945Z</time>
      </trkpt>
      <trkpt lat="51.979598" lon="8.894070">
        <ele>193.689350</ele>
        <time>2026-06-30T13:24:43.460Z</time>
      </trkpt>
      <trkpt lat="51.979668" lon="8.894187">
        <ele>193.662541</ele>
        <time>2026-06-30T13:24:45.664Z</time>
      </trkpt>
      <trkpt lat="51.979546" lon="8.894376">
        <ele>193.617544</ele>
        <time>2026-06-30T13:24:49.167Z</time>
      </trkpt>
      <trkpt lat="51.979127" lon="8.895014">
        <ele>193.464257</ele>
        <time>2026-06-30T13:24:59.660Z</time>
      </trkpt>
      <trkpt lat="51.978850" lon="8.895342">
        <ele>193.240718</ele>
        <time>2026-06-30T13:25:05.279Z</time>
      </trkpt>
      <trkpt lat="51.978309" lon="8.895802">
        <ele>190.690384</ele>
        <time>2026-06-30T13:25:15.090Z</time>
      </trkpt>
      <trkpt lat="51.978103" lon="8.895934">
        <ele>189.765536</ele>
        <time>2026-06-30T13:25:18.515Z</time>
      </trkpt>
      <trkpt lat="51.977544" lon="8.896166">
        <ele>187.356057</ele>
        <time>2026-06-30T13:25:27.256Z</time>
      </trkpt>
      <trkpt lat="51.977104" lon="8.896214">
        <ele>185.457538</ele>
        <time>2026-06-30T13:25:33.967Z</time>
      </trkpt>
      <trkpt lat="51.976793" lon="8.896191">
        <ele>183.949654</ele>
        <time>2026-06-30T13:25:38.690Z</time>
      </trkpt>
      <trkpt lat="51.976527" lon="8.896171">
        <ele>182.659908</ele>
        <time>2026-06-30T13:25:42.670Z</time>
      </trkpt>
      <trkpt lat="51.975990" lon="8.896080">
        <ele>180.044828</ele>
        <time>2026-06-30T13:25:50.770Z</time>
      </trkpt>
      <trkpt lat="51.975468" lon="8.896084">
        <ele>177.516504</ele>
        <time>2026-06-30T13:25:58.697Z</time>
      </trkpt>
      <trkpt lat="51.973832" lon="8.895901">
        <ele>171.720332</ele>
        <time>2026-06-30T13:26:24.813Z</time>
      </trkpt>
      <trkpt lat="51.973129" lon="8.895775">
        <ele>170.146747</ele>
        <time>2026-06-30T13:26:37.099Z</time>
      </trkpt>
      <trkpt lat="51.972870" lon="8.895781">
        <ele>169.728844</ele>
        <time>2026-06-30T13:26:41.785Z</time>
      </trkpt>
      <trkpt lat="51.971341" lon="8.895597">
        <ele>167.350485</ele>
        <time>2026-06-30T13:27:11.043Z</time>
      </trkpt>
      <trkpt lat="51.970246" lon="8.895761">
        <ele>165.800007</ele>
        <time>2026-06-30T13:27:31.863Z</time>
      </trkpt>
      <trkpt lat="51.969886" lon="8.895876">
        <ele>165.279194</ele>
        <time>2026-06-30T13:27:38.260Z</time>
      </trkpt>
      <trkpt lat="51.968907" lon="8.896012">
        <ele>163.868624</ele>
        <time>2026-06-30T13:27:55.291Z</time>
      </trkpt>
      <trkpt lat="51.968803" lon="8.896059">
        <ele>163.713645</ele>
        <time>2026-06-30T13:27:57.217Z</time>
      </trkpt>
      <trkpt lat="51.968208" lon="8.895870">
        <ele>162.954571</ele>
        <time>2026-06-30T13:28:09.298Z</time>
      </trkpt>
      <trkpt lat="51.968104" lon="8.895812">
        <ele>163.153074</ele>
        <time>2026-06-30T13:28:11.650Z</time>
      </trkpt>
      <trkpt lat="51.968073" lon="8.896451">
        <ele>163.865920</ele>
        <time>2026-06-30T13:28:20.344Z</time>
      </trkpt>
      <trkpt lat="51.968064" lon="8.896530">
        <ele>163.955267</ele>
        <time>2026-06-30T13:28:21.479Z</time>
      </trkpt>
      <trkpt lat="51.967991" lon="8.897365">
        <ele>164.893194</ele>
        <time>2026-06-30T13:28:33.498Z</time>
      </trkpt>
      <trkpt lat="51.967927" lon="8.898126">
        <ele>165.747370</ele>
        <time>2026-06-30T13:28:44.871Z</time>
      </trkpt>
      <trkpt lat="51.967891" lon="8.898565">
        <ele>166.376322</ele>
        <time>2026-06-30T13:28:51.550Z</time>
      </trkpt>
      <trkpt lat="51.965714" lon="8.898102">
        <ele>175.093918</ele>
        <time>2026-06-30T13:29:49.926Z</time>
      </trkpt>
      <trkpt lat="51.965566" lon="8.898041">
        <ele>175.534001</ele>
        <time>2026-06-30T13:29:53.801Z</time>
      </trkpt>
      <trkpt lat="51.965411" lon="8.897894">
        <ele>176.051394</ele>
        <time>2026-06-30T13:29:58.291Z</time>
      </trkpt>
      <trkpt lat="51.965277" lon="8.897668">
        <ele>176.608353</ele>
        <time>2026-06-30T13:30:03.056Z</time>
      </trkpt>
      <trkpt lat="51.964774" lon="8.896509">
        <ele>179.041848</ele>
        <time>2026-06-30T13:30:23.962Z</time>
      </trkpt>
      <trkpt lat="51.964595" lon="8.896189">
        <ele>179.387696</ele>
        <time>2026-06-30T13:30:30.230Z</time>
      </trkpt>
      <trkpt lat="51.964542" lon="8.896142">
        <ele>179.466133</ele>
        <time>2026-06-30T13:30:31.651Z</time>
      </trkpt>
      <trkpt lat="51.964390" lon="8.896006">
        <ele>179.691548</ele>
        <time>2026-06-30T13:30:35.752Z</time>
      </trkpt>
      <trkpt lat="51.964298" lon="8.895946">
        <ele>179.820316</ele>
        <time>2026-06-30T13:30:38.085Z</time>
      </trkpt>
      <trkpt lat="51.963649" lon="8.895516">
        <ele>180.730712</ele>
        <time>2026-06-30T13:30:54.710Z</time>
      </trkpt>
      <trkpt lat="51.963339" lon="8.895468">
        <ele>181.135142</ele>
        <time>2026-06-30T13:31:02.096Z</time>
      </trkpt>
      <trkpt lat="51.962372" lon="8.895760">
        <ele>179.968718</ele>
        <time>2026-06-30T13:31:23.353Z</time>
      </trkpt>
      <trkpt lat="51.962283" lon="8.895791">
        <ele>179.825153</ele>
        <time>2026-06-30T13:31:25.044Z</time>
      </trkpt>
      <trkpt lat="51.960904" lon="8.896356">
        <ele>176.791621</ele>
        <time>2026-06-30T13:31:49.267Z</time>
      </trkpt>
      <trkpt lat="51.960183" lon="8.896977">
        <ele>174.361222</ele>
        <time>2026-06-30T13:32:03.290Z</time>
      </trkpt>
      <trkpt lat="51.960165" lon="8.896480">
        <ele>173.447770</ele>
        <time>2026-06-30T13:32:08.468Z</time>
      </trkpt>
      <trkpt lat="51.960155" lon="8.895801">
        <ele>172.445557</ele>
        <time>2026-06-30T13:32:15.630Z</time>
      </trkpt>
      <trkpt lat="51.960150" lon="8.895528">
        <ele>172.078029</ele>
        <time>2026-06-30T13:32:18.529Z</time>
      </trkpt>
      <trkpt lat="51.960143" lon="8.894987">
        <ele>171.349866</ele>
        <time>2026-06-30T13:32:24.323Z</time>
      </trkpt>
      <trkpt lat="51.960082" lon="8.893922">
        <ele>169.910558</ele>
        <time>2026-06-30T13:32:35.903Z</time>
      </trkpt>
      <trkpt lat="51.960091" lon="8.893324">
        <ele>169.132997</ele>
        <time>2026-06-30T13:32:42.303Z</time>
      </trkpt>
      <trkpt lat="51.960106" lon="8.893136">
        <ele>168.961780</ele>
        <time>2026-06-30T13:32:44.388Z</time>
      </trkpt>
      <trkpt lat="51.960139" lon="8.892565">
        <ele>168.443799</ele>
        <time>2026-06-30T13:32:50.615Z</time>
      </trkpt>
      <trkpt lat="51.960158" lon="8.892073">
        <ele>167.998561</ele>
        <time>2026-06-30T13:32:56.043Z</time>
      </trkpt>
      <trkpt lat="51.960163" lon="8.891920">
        <ele>167.860179</ele>
        <time>2026-06-30T13:32:57.808Z</time>
      </trkpt>
      <trkpt lat="51.960192" lon="8.891415">
        <ele>167.402095</ele>
        <time>2026-06-30T13:33:03.737Z</time>
      </trkpt>
      <trkpt lat="51.960225" lon="8.890819">
        <ele>166.861630</ele>
        <time>2026-06-30T13:33:10.786Z</time>
      </trkpt>
      <trkpt lat="51.960230" lon="8.890269">
        <ele>166.455348</ele>
        <time>2026-06-30T13:33:17.430Z</time>
      </trkpt>
      <trkpt lat="51.960195" lon="8.889914">
        <ele>166.287170</ele>
        <time>2026-06-30T13:33:21.824Z</time>
      </trkpt>
      <trkpt lat="51.960037" lon="8.889364">
        <ele>166.003299</ele>
        <time>2026-06-30T13:33:29.125Z</time>
      </trkpt>
      <trkpt lat="51.960023" lon="8.889313">
        <ele>165.977181</ele>
        <time>2026-06-30T13:33:29.810Z</time>
      </trkpt>
      <trkpt lat="51.959875" lon="8.888834">
        <ele>165.726517</ele>
        <time>2026-06-30T13:33:36.320Z</time>
      </trkpt>
      <trkpt lat="51.959795" lon="8.888569">
        <ele>165.588474</ele>
        <time>2026-06-30T13:33:39.931Z</time>
      </trkpt>
      <trkpt lat="51.959717" lon="8.888303">
        <ele>165.450670</ele>
        <time>2026-06-30T13:33:43.542Z</time>
      </trkpt>
      <trkpt lat="51.959612" lon="8.887958">
        <ele>165.270669</ele>
        <time>2026-06-30T13:33:48.251Z</time>
      </trkpt>
      <trkpt lat="51.959405" lon="8.887247">
        <ele>165.167632</ele>
        <time>2026-06-30T13:33:58.015Z</time>
      </trkpt>
      <trkpt lat="51.959064" lon="8.887393">
        <ele>165.149231</ele>
        <time>2026-06-30T13:34:05.367Z</time>
      </trkpt>
      <trkpt lat="51.958653" lon="8.887568">
        <ele>165.127061</ele>
        <time>2026-06-30T13:34:14.530Z</time>
      </trkpt>
      <trkpt lat="51.957814" lon="8.887929">
        <ele>164.921095</ele>
        <time>2026-06-30T13:34:33.420Z</time>
      </trkpt>
      <trkpt lat="51.957676" lon="8.887986">
        <ele>164.810375</ele>
        <time>2026-06-30T13:34:36.390Z</time>
      </trkpt>
      <trkpt lat="51.955746" lon="8.888798">
        <ele>162.797343</ele>
        <time>2026-06-30T13:35:14.618Z</time>
      </trkpt>
      <trkpt lat="51.955656" lon="8.888873">
        <ele>162.634930</ele>
        <time>2026-06-30T13:35:16.437Z</time>
      </trkpt>
      <trkpt lat="51.955476" lon="8.888973">
        <ele>162.329515</ele>
        <time>2026-06-30T13:35:19.832Z</time>
      </trkpt>
      <trkpt lat="51.955285" lon="8.889024">
        <ele>162.018785</ele>
        <time>2026-06-30T13:35:23.294Z</time>
      </trkpt>
      <trkpt lat="51.954933" lon="8.889040">
        <ele>161.453508</ele>
        <time>2026-06-30T13:35:29.566Z</time>
      </trkpt>
      <trkpt lat="51.954654" lon="8.889053">
        <ele>161.005453</ele>
        <time>2026-06-30T13:35:34.493Z</time>
      </trkpt>
      <trkpt lat="51.954153" lon="8.889228">
        <ele>159.807729</ele>
        <time>2026-06-30T13:35:43.600Z</time>
      </trkpt>
      <trkpt lat="51.953865" lon="8.889251">
        <ele>159.066963</ele>
        <time>2026-06-30T13:35:48.647Z</time>
      </trkpt>
      <trkpt lat="51.953325" lon="8.889160">
        <ele>157.672245</ele>
        <time>2026-06-30T13:35:57.610Z</time>
      </trkpt>
      <trkpt lat="51.953258" lon="8.889040">
        <ele>157.415878</ele>
        <time>2026-06-30T13:35:59.239Z</time>
      </trkpt>
      <trkpt lat="51.953143" lon="8.889015">
        <ele>157.117804</ele>
        <time>2026-06-30T13:36:01.154Z</time>
      </trkpt>
      <trkpt lat="51.952762" lon="8.889052">
        <ele>156.153504</ele>
        <time>2026-06-30T13:36:07.378Z</time>
      </trkpt>
      <trkpt lat="51.952702" lon="8.889045">
        <ele>156.049606</ele>
        <time>2026-06-30T13:36:08.365Z</time>
      </trkpt>
      <trkpt lat="51.952446" lon="8.888761">
        <ele>155.513979</ele>
        <time>2026-06-30T13:36:13.566Z</time>
      </trkpt>
      <trkpt lat="51.952385" lon="8.888870">
        <ele>155.357253</ele>
        <time>2026-06-30T13:36:15.719Z</time>
      </trkpt>
      <trkpt lat="51.952190" lon="8.889165">
        <ele>154.896770</ele>
        <time>2026-06-30T13:36:22.082Z</time>
      </trkpt>
      <trkpt lat="51.952141" lon="8.889065">
        <ele>154.760777</ele>
        <time>2026-06-30T13:36:23.475Z</time>
      </trkpt>
      <trkpt lat="51.952094" lon="8.888958">
        <ele>154.620909</ele>
        <time>2026-06-30T13:36:24.894Z</time>
      </trkpt>
      <trkpt lat="51.952000" lon="8.889037">
        <ele>154.438068</ele>
        <time>2026-06-30T13:36:27.428Z</time>
      </trkpt>
      <trkpt lat="51.951907" lon="8.889116">
        <ele>154.256758</ele>
        <time>2026-06-30T13:36:29.968Z</time>
      </trkpt>
      <trkpt lat="51.951598" lon="8.889453">
        <ele>153.613699</ele>
        <time>2026-06-30T13:36:39.302Z</time>
      </trkpt>
      <trkpt lat="51.951527" lon="8.889484">
        <ele>153.486707</ele>
        <time>2026-06-30T13:36:40.822Z</time>
      </trkpt>
      <trkpt lat="51.951437" lon="8.889458">
        <ele>153.328816</ele>
        <time>2026-06-30T13:36:42.655Z</time>
      </trkpt>
      <trkpt lat="51.951387" lon="8.889515">
        <ele>153.223272</ele>
        <time>2026-06-30T13:36:43.963Z</time>
      </trkpt>
      <trkpt lat="51.951288" lon="8.889399">
        <ele>153.135181</ele>
        <time>2026-06-30T13:36:46.575Z</time>
      </trkpt>
      <trkpt lat="51.951198" lon="8.889344">
        <ele>153.269587</ele>
        <time>2026-06-30T13:36:48.630Z</time>
      </trkpt>
      <trkpt lat="51.950964" lon="8.889064">
        <ele>153.675934</ele>
        <time>2026-06-30T13:36:55.210Z</time>
      </trkpt>
      <trkpt lat="51.950660" lon="8.888863">
        <ele>154.134716</ele>
        <time>2026-06-30T13:37:02.746Z</time>
      </trkpt>
      <trkpt lat="51.949897" lon="8.888646">
        <ele>155.217316</ele>
        <time>2026-06-30T13:37:21.364Z</time>
      </trkpt>
      <trkpt lat="51.949503" lon="8.888555">
        <ele>155.772124</ele>
        <time>2026-06-30T13:37:31.363Z</time>
      </trkpt>
      <trkpt lat="51.949064" lon="8.888435">
        <ele>156.389505</ele>
        <time>2026-06-30T13:37:42.251Z</time>
      </trkpt>
      <trkpt lat="51.948857" lon="8.888383">
        <ele>156.679992</ele>
        <time>2026-06-30T13:37:47.265Z</time>
      </trkpt>
      <trkpt lat="51.948730" lon="8.888351">
        <ele>156.858226</ele>
        <time>2026-06-30T13:37:50.308Z</time>
      </trkpt>
      <trkpt lat="51.948325" lon="8.888248">
        <ele>157.426735</ele>
        <time>2026-06-30T13:37:59.947Z</time>
      </trkpt>
      <trkpt lat="51.948209" lon="8.888218">
        <ele>157.589634</ele>
        <time>2026-06-30T13:38:02.631Z</time>
      </trkpt>
      <trkpt lat="51.948074" lon="8.888182">
        <ele>157.779363</ele>
        <time>2026-06-30T13:38:05.718Z</time>
      </trkpt>
      <trkpt lat="51.947722" lon="8.888106">
        <ele>158.010719</ele>
        <time>2026-06-30T13:38:12.901Z</time>
      </trkpt>
      <trkpt lat="51.947689" lon="8.888060">
        <ele>157.985209</ele>
        <time>2026-06-30T13:38:13.740Z</time>
      </trkpt>
      <trkpt lat="51.947564" lon="8.888017">
        <ele>157.910287</ele>
        <time>2026-06-30T13:38:16.194Z</time>
      </trkpt>
      <trkpt lat="51.947513" lon="8.887883">
        <ele>157.853370</ele>
        <time>2026-06-30T13:38:18.079Z</time>
      </trkpt>
      <trkpt lat="51.947537" lon="8.887753">
        <ele>157.804325</ele>
        <time>2026-06-30T13:38:19.694Z</time>
      </trkpt>
      <trkpt lat="51.947549" lon="8.887572">
        <ele>157.738532</ele>
        <time>2026-06-30T13:38:21.903Z</time>
      </trkpt>
      <trkpt lat="51.947599" lon="8.887357">
        <ele>157.655483</ele>
        <time>2026-06-30T13:38:24.699Z</time>
      </trkpt>
      <trkpt lat="51.947702" lon="8.886938">
        <ele>157.492454</ele>
        <time>2026-06-30T13:38:30.264Z</time>
      </trkpt>
      <trkpt lat="51.947762" lon="8.886706">
        <ele>157.401526</ele>
        <time>2026-06-30T13:38:33.381Z</time>
      </trkpt>
      <trkpt lat="51.947801" lon="8.886551">
        <ele>157.341020</ele>
        <time>2026-06-30T13:38:35.462Z</time>
      </trkpt>
      <trkpt lat="51.947746" lon="8.886533">
        <ele>157.308122</ele>
        <time>2026-06-30T13:38:37.402Z</time>
      </trkpt>
      <trkpt lat="51.947307" lon="8.886397">
        <ele>157.046069</ele>
        <time>2026-06-30T13:38:52.866Z</time>
      </trkpt>
      <trkpt lat="51.947062" lon="8.886317">
        <ele>156.723022</ele>
        <time>2026-06-30T13:38:57.810Z</time>
      </trkpt>
      <trkpt lat="51.946767" lon="8.886221">
        <ele>156.314496</ele>
        <time>2026-06-30T13:39:03.698Z</time>
      </trkpt>
      <trkpt lat="51.946713" lon="8.886148">
        <ele>156.219057</ele>
        <time>2026-06-30T13:39:05.070Z</time>
      </trkpt>
      <trkpt lat="51.946479" lon="8.886071">
        <ele>155.894865</ele>
        <time>2026-06-30T13:39:09.644Z</time>
      </trkpt>
      <trkpt lat="51.946330" lon="8.886022">
        <ele>155.688440</ele>
        <time>2026-06-30T13:39:12.457Z</time>
      </trkpt>
      <trkpt lat="51.945992" lon="8.885912">
        <ele>155.220364</ele>
        <time>2026-06-30T13:39:18.665Z</time>
      </trkpt>
      <trkpt lat="51.945861" lon="8.885873">
        <ele>155.039524</ele>
        <time>2026-06-30T13:39:21.033Z</time>
      </trkpt>
      <trkpt lat="51.945711" lon="8.885824">
        <ele>154.831768</ele>
        <time>2026-06-30T13:39:23.744Z</time>
      </trkpt>
      <trkpt lat="51.945098" lon="8.885625">
        <ele>153.966105</ele>
        <time>2026-06-30T13:39:34.696Z</time>
      </trkpt>
      <trkpt lat="51.944509" lon="8.885365">
        <ele>153.114358</ele>
        <time>2026-06-30T13:39:45.482Z</time>
      </trkpt>
      <trkpt lat="51.944325" lon="8.885236">
        <ele>152.834662</ele>
        <time>2026-06-30T13:39:49.156Z</time>
      </trkpt>
      <trkpt lat="51.944216" lon="8.885161">
        <ele>152.669453</ele>
        <time>2026-06-30T13:39:51.442Z</time>
      </trkpt>
      <trkpt lat="51.944188" lon="8.885137">
        <ele>152.625265</ele>
        <time>2026-06-30T13:39:52.047Z</time>
      </trkpt>
      <trkpt lat="51.944060" lon="8.885013">
        <ele>152.417237</ele>
        <time>2026-06-30T13:39:55.007Z</time>
      </trkpt>
      <trkpt lat="51.943643" lon="8.884656">
        <ele>152.018481</ele>
        <time>2026-06-30T13:40:04.760Z</time>
      </trkpt>
      <trkpt lat="51.942422" lon="8.883930">
        <ele>151.662325</ele>
        <time>2026-06-30T13:40:32.696Z</time>
      </trkpt>
      <trkpt lat="51.942320" lon="8.883870">
        <ele>151.632610</ele>
        <time>2026-06-30T13:40:35.661Z</time>
      </trkpt>
      <trkpt lat="51.942228" lon="8.883810">
        <ele>151.605453</ele>
        <time>2026-06-30T13:40:38.341Z</time>
      </trkpt>
      <trkpt lat="51.940819" lon="8.882971">
        <ele>147.980285</ele>
        <time>2026-06-30T13:41:04.932Z</time>
      </trkpt>
      <trkpt lat="51.940624" lon="8.882691">
        <ele>147.328285</ele>
        <time>2026-06-30T13:41:08.968Z</time>
      </trkpt>
      <trkpt lat="51.940287" lon="8.882240">
        <ele>145.281751</ele>
        <time>2026-06-30T13:41:15.471Z</time>
      </trkpt>
      <trkpt lat="51.940028" lon="8.881851">
        <ele>143.409346</ele>
        <time>2026-06-30T13:41:20.611Z</time>
      </trkpt>
      <trkpt lat="51.939745" lon="8.881434">
        <ele>141.381216</ele>
        <time>2026-06-30T13:41:26.140Z</time>
      </trkpt>
      <trkpt lat="51.939351" lon="8.880869">
        <ele>138.591548</ele>
        <time>2026-06-30T13:41:33.932Z</time>
      </trkpt>
      <trkpt lat="51.939307" lon="8.880803">
        <ele>138.273641</ele>
        <time>2026-06-30T13:41:34.836Z</time>
      </trkpt>
      <trkpt lat="51.939450" lon="8.880483">
        <ele>137.386928</ele>
        <time>2026-06-30T13:41:38.754Z</time>
      </trkpt>
      <trkpt lat="51.939573" lon="8.880031">
        <ele>136.934200</ele>
        <time>2026-06-30T13:41:43.874Z</time>
      </trkpt>
      <trkpt lat="51.939626" lon="8.879709">
        <ele>136.628812</ele>
        <time>2026-06-30T13:41:47.540Z</time>
      </trkpt>
      <trkpt lat="51.939660" lon="8.879478">
        <ele>136.411195</ele>
        <time>2026-06-30T13:41:50.126Z</time>
      </trkpt>
      <trkpt lat="51.939695" lon="8.879274">
        <ele>136.217164</ele>
        <time>2026-06-30T13:41:52.512Z</time>
      </trkpt>
      <trkpt lat="51.939730" lon="8.879081">
        <ele>136.032824</ele>
        <time>2026-06-30T13:41:54.901Z</time>
      </trkpt>
      <trkpt lat="51.939241" lon="8.878919">
        <ele>135.291003</ele>
        <time>2026-06-30T13:42:05.604Z</time>
      </trkpt>
      <trkpt lat="51.938684" lon="8.878739">
        <ele>135.163689</ele>
        <time>2026-06-30T13:42:18.385Z</time>
      </trkpt>
      <trkpt lat="51.938307" lon="8.878615">
        <ele>135.557079</ele>
        <time>2026-06-30T13:42:26.956Z</time>
      </trkpt>
      <trkpt lat="51.938212" lon="8.878584">
        <ele>135.656178</ele>
        <time>2026-06-30T13:42:29.132Z</time>
      </trkpt>
      <trkpt lat="51.938053" lon="8.878532">
        <ele>135.822053</ele>
        <time>2026-06-30T13:42:32.842Z</time>
      </trkpt>
      <trkpt lat="51.937599" lon="8.878384">
        <ele>136.295625</ele>
        <time>2026-06-30T13:42:43.549Z</time>
      </trkpt>
      <trkpt lat="51.937520" lon="8.878357">
        <ele>136.378190</ele>
        <time>2026-06-30T13:42:45.438Z</time>
      </trkpt>
      <trkpt lat="51.937452" lon="8.878559">
        <ele>136.523298</ele>
        <time>2026-06-30T13:42:48.685Z</time>
      </trkpt>
      <trkpt lat="51.937402" lon="8.878498">
        <ele>136.587280</ele>
        <time>2026-06-30T13:42:50.436Z</time>
      </trkpt>
      <trkpt lat="51.937355" lon="8.878438">
        <ele>136.648446</ele>
        <time>2026-06-30T13:42:52.113Z</time>
      </trkpt>
      <trkpt lat="51.937078" lon="8.877265">
        <ele>136.923284</ele>
        <time>2026-06-30T13:43:13.389Z</time>
      </trkpt>
      <trkpt lat="51.937050" lon="8.877155">
        <ele>136.945128</ele>
        <time>2026-06-30T13:43:15.391Z</time>
      </trkpt>
      <trkpt lat="51.937021" lon="8.877040">
        <ele>136.967934</ele>
        <time>2026-06-30T13:43:17.521Z</time>
      </trkpt>
      <trkpt lat="51.936955" lon="8.876774">
        <ele>137.020565</ele>
        <time>2026-06-30T13:43:22.469Z</time>
      </trkpt>
      <trkpt lat="51.936884" lon="8.876489">
        <ele>137.076987</ele>
        <time>2026-06-30T13:43:27.745Z</time>
      </trkpt>
      <trkpt lat="51.936861" lon="8.876399">
        <ele>137.094870</ele>
        <time>2026-06-30T13:43:29.426Z</time>
      </trkpt>
      <trkpt lat="51.936817" lon="8.876228">
        <ele>137.128881</ele>
        <time>2026-06-30T13:43:32.585Z</time>
      </trkpt>
      <trkpt lat="51.936746" lon="8.876004">
        <ele>137.175113</ele>
        <time>2026-06-30T13:43:36.868Z</time>
      </trkpt>
      <trkpt lat="51.936613" lon="8.875904">
        <ele>137.218757</ele>
        <time>2026-06-30T13:43:40.875Z</time>
      </trkpt>
      <trkpt lat="51.936539" lon="8.875848">
        <ele>137.243069</ele>
        <time>2026-06-30T13:43:43.137Z</time>
      </trkpt>
      <trkpt lat="51.936231" lon="8.875741">
        <ele>137.358853</ele>
        <time>2026-06-30T13:43:51.698Z</time>
      </trkpt>
      <trkpt lat="51.935952" lon="8.875703">
        <ele>137.462491</ele>
        <time>2026-06-30T13:43:59.443Z</time>
      </trkpt>
      <trkpt lat="51.935855" lon="8.875632">
        <ele>137.501884</ele>
        <time>2026-06-30T13:44:02.426Z</time>
      </trkpt>
      <trkpt lat="51.935888" lon="8.875506">
        <ele>137.533127</ele>
        <time>2026-06-30T13:44:04.784Z</time>
      </trkpt>
      <trkpt lat="51.935907" lon="8.875417">
        <ele>137.554621</ele>
        <time>2026-06-30T13:44:06.405Z</time>
      </trkpt>
      <trkpt lat="51.935335" lon="8.875310">
        <ele>137.767757</ele>
        <time>2026-06-30T13:44:22.457Z</time>
      </trkpt>
      <trkpt lat="51.935063" lon="8.875282">
        <ele>137.868643</ele>
        <time>2026-06-30T13:44:30.032Z</time>
      </trkpt>
      <trkpt lat="51.934947" lon="8.875285">
        <ele>137.911587</ele>
        <time>2026-06-30T13:44:33.291Z</time>
      </trkpt>
      <trkpt lat="51.934734" lon="8.875323">
        <ele>138.017095</ele>
        <time>2026-06-30T13:44:39.253Z</time>
      </trkpt>
      <trkpt lat="51.934412" lon="8.875402">
        <ele>138.177748</ele>
        <time>2026-06-30T13:44:48.364Z</time>
      </trkpt>
      <trkpt lat="51.934201" lon="8.875525">
        <ele>138.288355</ele>
        <time>2026-06-30T13:44:54.596Z</time>
      </trkpt>
      <trkpt lat="51.934002" lon="8.875718">
        <ele>138.402736</ele>
        <time>2026-06-30T13:45:01.060Z</time>
      </trkpt>
      <trkpt lat="51.933836" lon="8.875956">
        <ele>138.512034</ele>
        <time>2026-06-30T13:45:07.226Z</time>
      </trkpt>
      <trkpt lat="51.933586" lon="8.876425">
        <ele>138.700605</ele>
        <time>2026-06-30T13:45:17.881Z</time>
      </trkpt>
      <trkpt lat="51.933559" lon="8.876487">
        <ele>138.723693</ele>
        <time>2026-06-30T13:45:19.192Z</time>
      </trkpt>
      <trkpt lat="51.933570" lon="8.876595">
        <ele>138.756987</ele>
        <time>2026-06-30T13:45:21.065Z</time>
      </trkpt>
      <trkpt lat="51.933561" lon="8.876615">
        <ele>138.764518</ele>
        <time>2026-06-30T13:45:21.502Z</time>
      </trkpt>
      <trkpt lat="51.933555" lon="8.876630">
        <ele>138.769957</ele>
        <time>2026-06-30T13:45:21.793Z</time>
      </trkpt>
      <trkpt lat="51.933550" lon="8.876641">
        <ele>138.774114</ele>
        <time>2026-06-30T13:45:22.033Z</time>
      </trkpt>
      <trkpt lat="51.933270" lon="8.877192">
        <ele>138.842161</ele>
        <time>2026-06-30T13:45:34.232Z</time>
      </trkpt>
      <trkpt lat="51.933185" lon="8.877312">
        <ele>138.854532</ele>
        <time>2026-06-30T13:45:37.329Z</time>
      </trkpt>
      <trkpt lat="51.933106" lon="8.877352">
        <ele>138.863618</ele>
        <time>2026-06-30T13:45:39.609Z</time>
      </trkpt>
      <trkpt lat="51.933048" lon="8.877310">
        <ele>138.870591</ele>
        <time>2026-06-30T13:45:41.086Z</time>
      </trkpt>
      <trkpt lat="51.933084" lon="8.877175">
        <ele>138.880547</ele>
        <time>2026-06-30T13:45:42.967Z</time>
      </trkpt>
      <trkpt lat="51.933022" lon="8.877132">
        <ele>138.887949</ele>
        <time>2026-06-30T13:45:44.381Z</time>
      </trkpt>
      <trkpt lat="51.932820" lon="8.876972">
        <ele>138.912628</ele>
        <time>2026-06-30T13:45:49.062Z</time>
      </trkpt>
      <trkpt lat="51.932779" lon="8.876935">
        <ele>138.917779</ele>
        <time>2026-06-30T13:45:50.054Z</time>
      </trkpt>
      <trkpt lat="51.932731" lon="8.876892">
        <ele>138.923799</ele>
        <time>2026-06-30T13:45:51.217Z</time>
      </trkpt>
      <trkpt lat="51.932642" lon="8.876813">
        <ele>138.934937</ele>
        <time>2026-06-30T13:45:53.367Z</time>
      </trkpt>
      <trkpt lat="51.932527" lon="8.876711">
        <ele>138.949327</ele>
        <time>2026-06-30T13:45:56.140Z</time>
      </trkpt>
      <trkpt lat="51.932178" lon="8.876395">
        <ele>138.993206</ele>
        <time>2026-06-30T13:46:04.626Z</time>
      </trkpt>
      <trkpt lat="51.931810" lon="8.876070">
        <ele>139.368740</ele>
        <time>2026-06-30T13:46:13.643Z</time>
      </trkpt>
      <trkpt lat="51.931127" lon="8.875466">
        <ele>140.119815</ele>
        <time>2026-06-30T13:46:30.916Z</time>
      </trkpt>
      <trkpt lat="51.931090" lon="8.875576">
        <ele>140.194409</ele>
        <time>2026-06-30T13:46:32.664Z</time>
      </trkpt>
      <trkpt lat="51.930406" lon="8.874975">
        <ele>141.130742</ele>
        <time>2026-06-30T13:46:52.033Z</time>
      </trkpt>
      <trkpt lat="51.930119" lon="8.874371">
        <ele>141.981341</ele>
        <time>2026-06-30T13:47:03.898Z</time>
      </trkpt>
      <trkpt lat="51.930100" lon="8.874276">
        <ele>142.092748</ele>
        <time>2026-06-30T13:47:05.449Z</time>
      </trkpt>
      <trkpt lat="51.930063" lon="8.874196">
        <ele>142.204301</ele>
        <time>2026-06-30T13:47:07.004Z</time>
      </trkpt>
      <trkpt lat="51.929949" lon="8.873954">
        <ele>142.544016</ele>
        <time>2026-06-30T13:47:11.731Z</time>
      </trkpt>
      <trkpt lat="51.929858" lon="8.873752">
        <ele>142.823077</ele>
        <time>2026-06-30T13:47:15.608Z</time>
      </trkpt>
      <trkpt lat="51.929755" lon="8.873553">
        <ele>143.112901</ele>
        <time>2026-06-30T13:47:19.634Z</time>
      </trkpt>
      <trkpt lat="51.929074" lon="8.872704">
        <ele>144.259009</ele>
        <time>2026-06-30T13:47:39.911Z</time>
      </trkpt>
      <trkpt lat="51.929025" lon="8.872647">
        <ele>144.302629</ele>
        <time>2026-06-30T13:47:41.612Z</time>
      </trkpt>
      <trkpt lat="51.926979" lon="8.870185">
        <ele>146.145330</ele>
        <time>2026-06-30T13:48:52.558Z</time>
      </trkpt>
      <trkpt lat="51.927012" lon="8.870113">
        <ele>146.185336</ele>
        <time>2026-06-30T13:48:54.115Z</time>
      </trkpt>
      <trkpt lat="51.927213" lon="8.869685">
        <ele>146.425248</ele>
        <time>2026-06-30T13:49:01.728Z</time>
      </trkpt>
      <trkpt lat="51.927242" lon="8.869587">
        <ele>146.473722</ele>
        <time>2026-06-30T13:49:03.259Z</time>
      </trkpt>
      <trkpt lat="51.927247" lon="8.869420">
        <ele>146.548282</ele>
        <time>2026-06-30T13:49:05.594Z</time>
      </trkpt>
      <trkpt lat="51.927050" lon="8.868766">
        <ele>146.980995</ele>
        <time>2026-06-30T13:49:15.662Z</time>
      </trkpt>
      <trkpt lat="51.927006" lon="8.868608">
        <ele>147.087762</ele>
        <time>2026-06-30T13:49:18.082Z</time>
      </trkpt>
      <trkpt lat="51.926854" lon="8.868288">
        <ele>147.336522</ele>
        <time>2026-06-30T13:49:23.762Z</time>
      </trkpt>
      <trkpt lat="51.926797" lon="8.868166">
        <ele>147.430786</ele>
        <time>2026-06-30T13:49:25.876Z</time>
      </trkpt>
      <trkpt lat="51.926653" lon="8.867959">
        <ele>147.622966</ele>
        <time>2026-06-30T13:49:30.181Z</time>
      </trkpt>
      <trkpt lat="51.926412" lon="8.867865">
        <ele>147.870514</ele>
        <time>2026-06-30T13:49:35.530Z</time>
      </trkpt>
      <trkpt lat="51.925430" lon="8.866710">
        <ele>149.007796</ele>
        <time>2026-06-30T13:50:02.954Z</time>
      </trkpt>
      <trkpt lat="51.925233" lon="8.866566">
        <ele>149.200606</ele>
        <time>2026-06-30T13:50:07.969Z</time>
      </trkpt>
      <trkpt lat="51.924595" lon="8.865942">
        <ele>149.865407</ele>
        <time>2026-06-30T13:50:24.880Z</time>
      </trkpt>
      <trkpt lat="51.924058" lon="8.865272">
        <ele>149.435365</ele>
        <time>2026-06-30T13:50:38.477Z</time>
      </trkpt>
      <trkpt lat="51.923751" lon="8.864962">
        <ele>149.062160</ele>
        <time>2026-06-30T13:50:44.989Z</time>
      </trkpt>
      <trkpt lat="51.923648" lon="8.864562">
        <ele>148.786303</ele>
        <time>2026-06-30T13:50:49.700Z</time>
      </trkpt>
      <trkpt lat="51.923522" lon="8.864189">
        <ele>148.515650</ele>
        <time>2026-06-30T13:50:54.399Z</time>
      </trkpt>
      <trkpt lat="51.923510" lon="8.864149">
        <ele>148.487342</ele>
        <time>2026-06-30T13:50:54.898Z</time>
      </trkpt>
      <trkpt lat="51.923421" lon="8.863846">
        <ele>148.273759</ele>
        <time>2026-06-30T13:50:58.700Z</time>
      </trkpt>
      <trkpt lat="51.923221" lon="8.863763">
        <ele>148.175772</ele>
        <time>2026-06-30T13:51:02.673Z</time>
      </trkpt>
      <trkpt lat="51.923186" lon="8.863732">
        <ele>148.199091</ele>
        <time>2026-06-30T13:51:03.461Z</time>
      </trkpt>
      <trkpt lat="51.923025" lon="8.863240">
        <ele>148.399938</ele>
        <time>2026-06-30T13:51:10.406Z</time>
      </trkpt>
      <trkpt lat="51.922869" lon="8.862717">
        <ele>148.609436</ele>
        <time>2026-06-30T13:51:18.167Z</time>
      </trkpt>
      <trkpt lat="51.922821" lon="8.862652">
        <ele>148.646003</ele>
        <time>2026-06-30T13:51:19.546Z</time>
      </trkpt>
      <trkpt lat="51.922753" lon="8.862457">
        <ele>148.726785</ele>
        <time>2026-06-30T13:51:22.660Z</time>
      </trkpt>
      <trkpt lat="51.922667" lon="8.862252">
        <ele>148.816191</ele>
        <time>2026-06-30T13:51:26.148Z</time>
      </trkpt>
      <trkpt lat="51.922539" lon="8.862093">
        <ele>148.910474</ele>
        <time>2026-06-30T13:51:29.891Z</time>
      </trkpt>
      <trkpt lat="51.921815" lon="8.861417">
        <ele>149.949379</ele>
        <time>2026-06-30T13:51:49.217Z</time>
      </trkpt>
      <trkpt lat="51.921421" lon="8.861085">
        <ele>150.879523</ele>
        <time>2026-06-30T13:51:59.373Z</time>
      </trkpt>
      <trkpt lat="51.921026" lon="8.860919">
        <ele>151.734303</ele>
        <time>2026-06-30T13:52:08.958Z</time>
      </trkpt>
      <trkpt lat="51.920935" lon="8.860898">
        <ele>151.926849</ele>
        <time>2026-06-30T13:52:11.126Z</time>
      </trkpt>
      <trkpt lat="51.920971" lon="8.860440">
        <ele>152.523349</ele>
        <time>2026-06-30T13:52:17.919Z</time>
      </trkpt>
      <trkpt lat="51.920979" lon="8.860321">
        <ele>152.678002</ele>
        <time>2026-06-30T13:52:19.707Z</time>
      </trkpt>
      <trkpt lat="51.920998" lon="8.860059">
        <ele>153.049691</ele>
        <time>2026-06-30T13:52:23.612Z</time>
      </trkpt>
      <trkpt lat="51.921009" lon="8.859919">
        <ele>153.318339</ele>
        <time>2026-06-30T13:52:25.705Z</time>
      </trkpt>
      <trkpt lat="51.921030" lon="8.859639">
        <ele>153.855256</ele>
        <time>2026-06-30T13:52:29.903Z</time>
      </trkpt>
      <trkpt lat="51.921048" lon="8.859393">
        <ele>154.326809</ele>
        <time>2026-06-30T13:52:33.632Z</time>
      </trkpt>
      <trkpt lat="51.921108" lon="8.858579">
        <ele>155.887311</ele>
        <time>2026-06-30T13:52:46.217Z</time>
      </trkpt>
      <trkpt lat="51.921128" lon="8.858303">
        <ele>156.416299</ele>
        <time>2026-06-30T13:52:50.477Z</time>
      </trkpt>
      <trkpt lat="51.921273" lon="8.856425">
        <ele>160.197265</ele>
        <time>2026-06-30T13:53:18.625Z</time>
      </trkpt>
      <trkpt lat="51.921308" lon="8.855963">
        <ele>161.187609</ele>
        <time>2026-06-30T13:53:25.561Z</time>
      </trkpt>
      <trkpt lat="51.921612" lon="8.856060">
        <ele>162.256447</ele>
        <time>2026-06-30T13:53:33.167Z</time>
      </trkpt>
      <trkpt lat="51.921687" lon="8.856094">
        <ele>162.525100</ele>
        <time>2026-06-30T13:53:35.115Z</time>
      </trkpt>
      <trkpt lat="51.921827" lon="8.856120">
        <ele>163.011223</ele>
        <time>2026-06-30T13:53:38.629Z</time>
      </trkpt>
      <trkpt lat="51.921959" lon="8.855309">
        <ele>164.814694</ele>
        <time>2026-06-30T13:53:52.589Z</time>
      </trkpt>
      <trkpt lat="51.922207" lon="8.854579">
        <ele>166.978422</ele>
        <time>2026-06-30T13:54:06.660Z</time>
      </trkpt>
      <trkpt lat="51.922455" lon="8.854019">
        <ele>168.768276</ele>
        <time>2026-06-30T13:54:18.483Z</time>
      </trkpt>
      <trkpt lat="51.922550" lon="8.853910">
        <ele>169.258180</ele>
        <time>2026-06-30T13:54:21.652Z</time>
      </trkpt>
      <trkpt lat="51.922621" lon="8.853898">
        <ele>169.558679</ele>
        <time>2026-06-30T13:54:23.590Z</time>
      </trkpt>
      <trkpt lat="51.922695" lon="8.853934">
        <ele>169.883906</ele>
        <time>2026-06-30T13:54:25.675Z</time>
      </trkpt>
      <trkpt lat="51.922915" lon="8.853186">
        <ele>172.035348</ele>
        <time>2026-06-30T13:54:43.072Z</time>
      </trkpt>
      <trkpt lat="51.922976" lon="8.853079">
        <ele>172.419574</ele>
        <time>2026-06-30T13:54:46.127Z</time>
      </trkpt>
      <trkpt lat="51.923047" lon="8.852654">
        <ele>173.613988</ele>
        <time>2026-06-30T13:54:55.391Z</time>
      </trkpt>
      <trkpt lat="51.923123" lon="8.852502">
        <ele>174.144791</ele>
        <time>2026-06-30T13:54:58.460Z</time>
      </trkpt>
      <trkpt lat="51.923293" lon="8.852163">
        <ele>175.330007</ele>
        <time>2026-06-30T13:55:05.365Z</time>
      </trkpt>
      <trkpt lat="51.923631" lon="8.851657">
        <ele>177.353418</ele>
        <time>2026-06-30T13:55:17.395Z</time>
      </trkpt>
      <trkpt lat="51.923713" lon="8.851573">
        <ele>177.780039</ele>
        <time>2026-06-30T13:55:19.961Z</time>
      </trkpt>
      <trkpt lat="51.924267" lon="8.851182">
        <ele>180.345853</ele>
        <time>2026-06-30T13:55:36.059Z</time>
      </trkpt>
      <trkpt lat="51.924364" lon="8.850881">
        <ele>180.922007</ele>
        <time>2026-06-30T13:55:41.550Z</time>
      </trkpt>
      <trkpt lat="51.924607" lon="8.850197">
        <ele>182.261164</ele>
        <time>2026-06-30T13:55:53.805Z</time>
      </trkpt>
      <trkpt lat="51.924621" lon="8.850156">
        <ele>182.340669</ele>
        <time>2026-06-30T13:55:54.524Z</time>
      </trkpt>
      <trkpt lat="51.924822" lon="8.849608">
        <ele>183.422333</ele>
        <time>2026-06-30T13:56:03.931Z</time>
      </trkpt>
      <trkpt lat="51.924894" lon="8.849428">
        <ele>183.786305</ele>
        <time>2026-06-30T13:56:07.009Z</time>
      </trkpt>
      <trkpt lat="51.925001" lon="8.849154">
        <ele>184.336490</ele>
        <time>2026-06-30T13:56:11.613Z</time>
      </trkpt>
      <trkpt lat="51.925276" lon="8.848851">
        <ele>185.111324</ele>
        <time>2026-06-30T13:56:19.089Z</time>
      </trkpt>
      <trkpt lat="51.925790" lon="8.848429">
        <ele>184.692932</ele>
        <time>2026-06-30T13:56:31.313Z</time>
      </trkpt>
      <trkpt lat="51.926163" lon="8.848112">
        <ele>184.387106</ele>
        <time>2026-06-30T13:56:39.530Z</time>
      </trkpt>
      <trkpt lat="51.926372" lon="8.847925">
        <ele>184.213756</ele>
        <time>2026-06-30T13:56:43.942Z</time>
      </trkpt>
      <trkpt lat="51.926419" lon="8.847767">
        <ele>184.135196</ele>
        <time>2026-06-30T13:56:45.908Z</time>
      </trkpt>
      <trkpt lat="51.926736" lon="8.846798">
        <ele>183.308171</ele>
        <time>2026-06-30T13:56:58.581Z</time>
      </trkpt>
      <trkpt lat="51.926840" lon="8.846478">
        <ele>182.860421</ele>
        <time>2026-06-30T13:57:02.780Z</time>
      </trkpt>
      <trkpt lat="51.927066" lon="8.845834">
        <ele>181.943219</ele>
        <time>2026-06-30T13:57:11.163Z</time>
      </trkpt>
      <trkpt lat="51.927141" lon="8.845417">
        <ele>181.405542</ele>
        <time>2026-06-30T13:57:16.128Z</time>
      </trkpt>
      <trkpt lat="51.926964" lon="8.845218">
        <ele>180.973213</ele>
        <time>2026-06-30T13:57:20.132Z</time>
      </trkpt>
      <trkpt lat="51.926924" lon="8.845179">
        <ele>180.879526</ele>
        <time>2026-06-30T13:57:21.273Z</time>
      </trkpt>
      <trkpt lat="51.927040" lon="8.844732">
        <ele>180.279221</ele>
        <time>2026-06-30T13:57:26.439Z</time>
      </trkpt>
      <trkpt lat="51.927149" lon="8.844519">
        <ele>179.903589</ele>
        <time>2026-06-30T13:57:29.329Z</time>
      </trkpt>
      <trkpt lat="51.927182" lon="8.844406">
        <ele>179.731039</ele>
        <time>2026-06-30T13:57:30.623Z</time>
      </trkpt>
      <trkpt lat="51.927261" lon="8.844091">
        <ele>179.261744</ele>
        <time>2026-06-30T13:57:34.112Z</time>
      </trkpt>
      <trkpt lat="51.927312" lon="8.844131">
        <ele>179.134960</ele>
        <time>2026-06-30T13:57:35.065Z</time>
      </trkpt>
      <trkpt lat="51.927381" lon="8.844110">
        <ele>178.977845</ele>
        <time>2026-06-30T13:57:36.233Z</time>
      </trkpt>
      <trkpt lat="51.927458" lon="8.844022">
        <ele>178.767028</ele>
        <time>2026-06-30T13:57:37.820Z</time>
      </trkpt>
      <trkpt lat="51.927748" lon="8.842880">
        <ele>177.062613</ele>
        <time>2026-06-30T13:57:50.880Z</time>
      </trkpt>
      <trkpt lat="51.927724" lon="8.842801">
        <ele>176.941077</ele>
        <time>2026-06-30T13:57:51.854Z</time>
      </trkpt>
      <trkpt lat="51.927720" lon="8.841693">
        <ele>175.521735</ele>
        <time>2026-06-30T13:58:04.113Z</time>
      </trkpt>
      <trkpt lat="51.927763" lon="8.841364">
        <ele>175.122377</ele>
        <time>2026-06-30T13:58:07.930Z</time>
      </trkpt>
      <trkpt lat="51.927807" lon="8.841090">
        <ele>174.786158</ele>
        <time>2026-06-30T13:58:11.220Z</time>
      </trkpt>
      <trkpt lat="51.927862" lon="8.840825">
        <ele>174.454133</ele>
        <time>2026-06-30T13:58:14.493Z</time>
      </trkpt>
      <trkpt lat="51.927912" lon="8.840585">
        <ele>174.153315</ele>
        <time>2026-06-30T13:58:17.362Z</time>
      </trkpt>
      <trkpt lat="51.927975" lon="8.840233">
        <ele>173.718077</ele>
        <time>2026-06-30T13:58:21.428Z</time>
      </trkpt>
      <trkpt lat="51.928267" lon="8.838953">
        <ele>171.820487</ele>
        <time>2026-06-30T13:58:35.830Z</time>
      </trkpt>
      <trkpt lat="51.928321" lon="8.838849">
        <ele>171.588914</ele>
        <time>2026-06-30T13:58:37.170Z</time>
      </trkpt>
      <trkpt lat="51.928290" lon="8.838756">
        <ele>171.408848</ele>
        <time>2026-06-30T13:58:38.187Z</time>
      </trkpt>
      <trkpt lat="51.928098" lon="8.838751">
        <ele>170.878447</ele>
        <time>2026-06-30T13:58:41.224Z</time>
      </trkpt>
      <trkpt lat="51.927935" lon="8.838681">
        <ele>170.412698</ele>
        <time>2026-06-30T13:58:43.849Z</time>
      </trkpt>
      <trkpt lat="51.928088" lon="8.838186">
        <ele>169.469588</ele>
        <time>2026-06-30T13:58:49.255Z</time>
      </trkpt>
      <trkpt lat="51.928227" lon="8.837735">
        <ele>168.610806</ele>
        <time>2026-06-30T13:58:54.363Z</time>
      </trkpt>
      <trkpt lat="51.928298" lon="8.837626">
        <ele>168.340753</ele>
        <time>2026-06-30T13:58:56.026Z</time>
      </trkpt>
      <trkpt lat="51.928498" lon="8.837406">
        <ele>167.852573</ele>
        <time>2026-06-30T13:59:00.260Z</time>
      </trkpt>
      <trkpt lat="51.928577" lon="8.837274">
        <ele>168.138932</ele>
        <time>2026-06-30T13:59:02.285Z</time>
      </trkpt>
      <trkpt lat="51.928618" lon="8.837141">
        <ele>168.370409</ele>
        <time>2026-06-30T13:59:03.965Z</time>
      </trkpt>
      <trkpt lat="51.928783" lon="8.836525">
        <ele>169.415919</ele>
        <time>2026-06-30T13:59:13.138Z</time>
      </trkpt>
      <trkpt lat="51.928797" lon="8.836472">
        <ele>169.505677</ele>
        <time>2026-06-30T13:59:13.980Z</time>
      </trkpt>
      <trkpt lat="51.928842" lon="8.836306">
        <ele>169.787963</ele>
        <time>2026-06-30T13:59:16.616Z</time>
      </trkpt>
      <trkpt lat="51.928992" lon="8.835738">
        <ele>170.749859</ele>
        <time>2026-06-30T13:59:26.256Z</time>
      </trkpt>
      <trkpt lat="51.929027" lon="8.835610">
        <ele>170.967831</ele>
        <time>2026-06-30T13:59:28.534Z</time>
      </trkpt>
      <trkpt lat="51.929166" lon="8.835084">
        <ele>171.858689</ele>
        <time>2026-06-30T13:59:38.360Z</time>
      </trkpt>
      <trkpt lat="51.929269" lon="8.834705">
        <ele>172.600892</ele>
        <time>2026-06-30T13:59:45.471Z</time>
      </trkpt>
      <trkpt lat="51.929282" lon="8.834661">
        <ele>172.714649</ele>
        <time>2026-06-30T13:59:46.363Z</time>
      </trkpt>
      <trkpt lat="51.929296" lon="8.834608">
        <ele>172.849083</ele>
        <time>2026-06-30T13:59:47.381Z</time>
      </trkpt>
      <trkpt lat="51.929590" lon="8.833497">
        <ele>175.667909</ele>
        <time>2026-06-30T14:00:07.282Z</time>
      </trkpt>
      <trkpt lat="51.929645" lon="8.833360">
        <ele>176.049065</ele>
        <time>2026-06-30T14:00:09.746Z</time>
      </trkpt>
      <trkpt lat="51.929113" lon="8.833170">
        <ele>178.108829</ele>
        <time>2026-06-30T14:00:22.814Z</time>
      </trkpt>
      <trkpt lat="51.928364" lon="8.832928">
        <ele>179.754062</ele>
        <time>2026-06-30T14:00:40.508Z</time>
      </trkpt>
      <trkpt lat="51.928201" lon="8.832876">
        <ele>179.968818</ele>
        <time>2026-06-30T14:00:44.312Z</time>
      </trkpt>
      <trkpt lat="51.928123" lon="8.832851">
        <ele>180.071602</ele>
        <time>2026-06-30T14:00:46.132Z</time>
      </trkpt>
      <trkpt lat="51.927681" lon="8.832680">
        <ele>180.659030</ele>
        <time>2026-06-30T14:00:56.437Z</time>
      </trkpt>
      <trkpt lat="51.927552" lon="8.832630">
        <ele>180.830491</ele>
        <time>2026-06-30T14:00:59.429Z</time>
      </trkpt>
      <trkpt lat="51.927409" lon="8.832582">
        <ele>181.019271</ele>
        <time>2026-06-30T14:01:02.719Z</time>
      </trkpt>
      <trkpt lat="51.927138" lon="8.832493">
        <ele>181.376717</ele>
        <time>2026-06-30T14:01:08.885Z</time>
      </trkpt>
      <trkpt lat="51.927105" lon="8.832482">
        <ele>181.420269</ele>
        <time>2026-06-30T14:01:09.640Z</time>
      </trkpt>
      <trkpt lat="51.926760" lon="8.832379">
        <ele>181.777402</ele>
        <time>2026-06-30T14:01:17.356Z</time>
      </trkpt>
      <trkpt lat="51.926617" lon="8.832316">
        <ele>181.927013</ele>
        <time>2026-06-30T14:01:20.615Z</time>
      </trkpt>
      <trkpt lat="51.925744" lon="8.832007">
        <ele>182.829179</ele>
        <time>2026-06-30T14:01:40.342Z</time>
      </trkpt>
      <trkpt lat="51.925111" lon="8.831786">
        <ele>183.847399</ele>
        <time>2026-06-30T14:01:55.333Z</time>
      </trkpt>
      <trkpt lat="51.924857" lon="8.831691">
        <ele>184.521925</ele>
        <time>2026-06-30T14:02:01.567Z</time>
      </trkpt>
      <trkpt lat="51.924515" lon="8.831572">
        <ele>185.427056</ele>
        <time>2026-06-30T14:02:10.015Z</time>
      </trkpt>
      <trkpt lat="51.924393" lon="8.831528">
        <ele>185.750466</ele>
        <time>2026-06-30T14:02:13.050Z</time>
      </trkpt>
      <trkpt lat="51.924198" lon="8.831455">
        <ele>186.268336</ele>
        <time>2026-06-30T14:02:17.884Z</time>
      </trkpt>
      <trkpt lat="51.924252" lon="8.831382">
        <ele>186.450262</ele>
        <time>2026-06-30T14:02:19.563Z</time>
      </trkpt>
      <trkpt lat="51.924280" lon="8.831253">
        <ele>186.668502</ele>
        <time>2026-06-30T14:02:21.591Z</time>
      </trkpt>
      <trkpt lat="51.924374" lon="8.830868">
        <ele>187.329292</ele>
        <time>2026-06-30T14:02:27.683Z</time>
      </trkpt>
      <trkpt lat="51.924463" lon="8.830486">
        <ele>187.977310</ele>
        <time>2026-06-30T14:02:33.729Z</time>
      </trkpt>
      <trkpt lat="51.924505" lon="8.830304">
        <ele>188.272749</ele>
        <time>2026-06-30T14:02:36.644Z</time>
      </trkpt>
      <trkpt lat="51.924556" lon="8.830095">
        <ele>188.614468</ele>
        <time>2026-06-30T14:02:40.050Z</time>
      </trkpt>
      <trkpt lat="51.924649" lon="8.829679">
        <ele>189.287197</ele>
        <time>2026-06-30T14:02:46.784Z</time>
      </trkpt>
      <trkpt lat="51.924590" lon="8.829341">
        <ele>189.821256</ele>
        <time>2026-06-30T14:02:52.112Z</time>
      </trkpt>
      <trkpt lat="51.924541" lon="8.829063">
        <ele>190.260831</ele>
        <time>2026-06-30T14:02:56.430Z</time>
      </trkpt>
      <trkpt lat="51.924486" lon="8.828744">
        <ele>190.764413</ele>
        <time>2026-06-30T14:03:01.268Z</time>
      </trkpt>
      <trkpt lat="51.924476" lon="8.828689">
        <ele>190.851590</ele>
        <time>2026-06-30T14:03:02.087Z</time>
      </trkpt>
      <trkpt lat="51.924422" lon="8.828392">
        <ele>191.322343</ele>
        <time>2026-06-30T14:03:06.500Z</time>
      </trkpt>
      <trkpt lat="51.924378" lon="8.828131">
        <ele>191.733709</ele>
        <time>2026-06-30T14:03:10.340Z</time>
      </trkpt>
      <trkpt lat="51.924325" lon="8.827843">
        <ele>192.190645</ele>
        <time>2026-06-30T14:03:14.617Z</time>
      </trkpt>
      <trkpt lat="51.924268" lon="8.827530">
        <ele>192.444323</ele>
        <time>2026-06-30T14:03:19.274Z</time>
      </trkpt>
      <trkpt lat="51.924222" lon="8.827269">
        <ele>192.569968</ele>
        <time>2026-06-30T14:03:23.125Z</time>
      </trkpt>
      <trkpt lat="51.924130" lon="8.826753">
        <ele>192.818588</ele>
        <time>2026-06-30T14:03:30.673Z</time>
      </trkpt>
      <trkpt lat="51.924087" lon="8.826514">
        <ele>192.933825</ele>
        <time>2026-06-30T14:03:34.092Z</time>
      </trkpt>
      <trkpt lat="51.924083" lon="8.826491">
        <ele>192.944887</ele>
        <time>2026-06-30T14:03:34.410Z</time>
      </trkpt>
      <trkpt lat="51.923948" lon="8.826125">
        <ele>193.142286</ele>
        <time>2026-06-30T14:03:40.080Z</time>
      </trkpt>
      <trkpt lat="51.923297" lon="8.823894">
        <ele>192.285173</ele>
        <time>2026-06-30T14:04:12.842Z</time>
      </trkpt>
      <trkpt lat="51.923221" lon="8.823577">
        <ele>191.914937</ele>
        <time>2026-06-30T14:04:16.779Z</time>
      </trkpt>
      <trkpt lat="51.922629" lon="8.820068">
        <ele>185.319167</ele>
        <time>2026-06-30T14:04:52.134Z</time>
      </trkpt>
      <trkpt lat="51.922464" lon="8.819249">
        <ele>183.834065</ele>
        <time>2026-06-30T14:05:00.877Z</time>
      </trkpt>
      <trkpt lat="51.922402" lon="8.819048">
        <ele>183.656023</ele>
        <time>2026-06-30T14:05:03.251Z</time>
      </trkpt>
      <trkpt lat="51.922221" lon="8.818537">
        <ele>183.189183</ele>
        <time>2026-06-30T14:05:09.730Z</time>
      </trkpt>
      <trkpt lat="51.921486" lon="8.817010">
        <ele>181.759937</ele>
        <time>2026-06-30T14:05:33.710Z</time>
      </trkpt>
      <trkpt lat="51.921279" lon="8.816408">
        <ele>181.771593</ele>
        <time>2026-06-30T14:05:42.691Z</time>
      </trkpt>
      <trkpt lat="51.921182" lon="8.815996">
        <ele>181.779050</ele>
        <time>2026-06-30T14:05:48.487Z</time>
      </trkpt>
      <trkpt lat="51.921115" lon="8.815539">
        <ele>181.786993</ele>
        <time>2026-06-30T14:05:54.697Z</time>
      </trkpt>
      <trkpt lat="51.920870" lon="8.812286">
        <ele>182.095861</ele>
        <time>2026-06-30T14:06:37.946Z</time>
      </trkpt>
      <trkpt lat="51.920857" lon="8.812123">
        <ele>182.118563</ele>
        <time>2026-06-30T14:06:40.149Z</time>
      </trkpt>
      <trkpt lat="51.920771" lon="8.810793">
        <ele>182.014187</ele>
        <time>2026-06-30T14:06:58.169Z</time>
      </trkpt>
      <trkpt lat="51.920692" lon="8.809574">
        <ele>181.659515</ele>
        <time>2026-06-30T14:07:13.925Z</time>
      </trkpt>
      <trkpt lat="51.920736" lon="8.809505">
        <ele>181.630796</ele>
        <time>2026-06-30T14:07:15.287Z</time>
      </trkpt>
      <trkpt lat="51.920840" lon="8.809120">
        <ele>181.509175</ele>
        <time>2026-06-30T14:07:20.958Z</time>
      </trkpt>
      <trkpt lat="51.920936" lon="8.808902">
        <ele>181.431666</ele>
        <time>2026-06-30T14:07:24.436Z</time>
      </trkpt>
      <trkpt lat="51.921043" lon="8.808555">
        <ele>181.130943</ele>
        <time>2026-06-30T14:07:29.319Z</time>
      </trkpt>
      <trkpt lat="51.921048" lon="8.808540">
        <ele>181.106053</ele>
        <time>2026-06-30T14:07:29.535Z</time>
      </trkpt>
      <trkpt lat="51.921307" lon="8.808026">
        <ele>180.137129</ele>
        <time>2026-06-30T14:07:37.566Z</time>
      </trkpt>
      <trkpt lat="51.922290" lon="8.806469">
        <ele>176.967378</ele>
        <time>2026-06-30T14:08:03.448Z</time>
      </trkpt>
      <trkpt lat="51.922573" lon="8.805910">
        <ele>176.301788</ele>
        <time>2026-06-30T14:08:12.318Z</time>
      </trkpt>
      <trkpt lat="51.922586" lon="8.805902">
        <ele>176.281039</ele>
        <time>2026-06-30T14:08:12.605Z</time>
      </trkpt>
      <trkpt lat="51.922616" lon="8.805884">
        <ele>176.233305</ele>
        <time>2026-06-30T14:08:13.248Z</time>
      </trkpt>
      <trkpt lat="51.922719" lon="8.805739">
        <ele>176.029756</ele>
        <time>2026-06-30T14:08:16.028Z</time>
      </trkpt>
      <trkpt lat="51.922854" lon="8.805417">
        <ele>175.671426</ele>
        <time>2026-06-30T14:08:20.995Z</time>
      </trkpt>
      <trkpt lat="51.922719" lon="8.805739">
        <ele>175.313096</ele>
        <time>2026-06-30T14:08:26.062Z</time>
      </trkpt>
      <trkpt lat="51.922616" lon="8.805884">
        <ele>175.109547</ele>
        <time>2026-06-30T14:08:28.998Z</time>
      </trkpt>
      <trkpt lat="51.922586" lon="8.805902">
        <ele>175.061813</ele>
        <time>2026-06-30T14:08:29.708Z</time>
      </trkpt>
      <trkpt lat="51.922562" lon="8.805672">
        <ele>174.847133</ele>
        <time>2026-06-30T14:08:32.891Z</time>
      </trkpt>
      <trkpt lat="51.922804" lon="8.805204">
        <ele>174.294583</ele>
        <time>2026-06-30T14:08:40.534Z</time>
      </trkpt>
      <trkpt lat="51.923123" lon="8.804504">
        <ele>173.548164</ele>
        <time>2026-06-30T14:08:51.183Z</time>
      </trkpt>
      <trkpt lat="51.923381" lon="8.804122">
        <ele>173.062335</ele>
        <time>2026-06-30T14:08:57.642Z</time>
      </trkpt>
      <trkpt lat="51.924832" lon="8.802983">
        <ele>170.425331</ele>
        <time>2026-06-30T14:09:26.081Z</time>
      </trkpt>
      <trkpt lat="51.925098" lon="8.802860">
        <ele>169.902837</ele>
        <time>2026-06-30T14:09:30.945Z</time>
      </trkpt>
      <trkpt lat="51.925140" lon="8.803064">
        <ele>169.652303</ele>
        <time>2026-06-30T14:09:35.160Z</time>
      </trkpt>
      <trkpt lat="51.925286" lon="8.803514">
        <ele>169.059977</ele>
        <time>2026-06-30T14:09:45.167Z</time>
      </trkpt>
      <trkpt lat="51.925424" lon="8.803595">
        <ele>168.782749</ele>
        <time>2026-06-30T14:09:48.148Z</time>
      </trkpt>
      <trkpt lat="51.925564" lon="8.803722">
        <ele>168.489323</ele>
        <time>2026-06-30T14:09:51.395Z</time>
      </trkpt>
      <trkpt lat="51.925622" lon="8.803774">
        <ele>168.390087</ele>
        <time>2026-06-30T14:09:52.730Z</time>
      </trkpt>
      <trkpt lat="51.925904" lon="8.803970">
        <ele>167.930681</ele>
        <time>2026-06-30T14:09:58.983Z</time>
      </trkpt>
      <trkpt lat="51.925997" lon="8.804058">
        <ele>167.769452</ele>
        <time>2026-06-30T14:10:01.210Z</time>
      </trkpt>
      <trkpt lat="51.926071" lon="8.804189">
        <ele>167.605410</ele>
        <time>2026-06-30T14:10:03.437Z</time>
      </trkpt>
      <trkpt lat="51.926217" lon="8.804297">
        <ele>167.365125</ele>
        <time>2026-06-30T14:10:06.670Z</time>
      </trkpt>
      <trkpt lat="51.926376" lon="8.804219">
        <ele>167.116390</ele>
        <time>2026-06-30T14:10:09.970Z</time>
      </trkpt>
      <trkpt lat="51.926689" lon="8.803954">
        <ele>166.587685</ele>
        <time>2026-06-30T14:10:17.181Z</time>
      </trkpt>
      <trkpt lat="51.926880" lon="8.803850">
        <ele>166.285998</ele>
        <time>2026-06-30T14:10:21.377Z</time>
      </trkpt>
      <trkpt lat="51.927000" lon="8.803693">
        <ele>166.055126</ele>
        <time>2026-06-30T14:10:24.574Z</time>
      </trkpt>
      <trkpt lat="51.927099" lon="8.803765">
        <ele>165.892663</ele>
        <time>2026-06-30T14:10:26.899Z</time>
      </trkpt>
      <trkpt lat="51.927249" lon="8.803781">
        <ele>165.772566</ele>
        <time>2026-06-30T14:10:30.185Z</time>
      </trkpt>
      <trkpt lat="51.927182" lon="8.804279">
        <ele>165.600966</ele>
        <time>2026-06-30T14:10:37.306Z</time>
      </trkpt>
      <trkpt lat="51.927213" lon="8.804707">
        <ele>165.455886</ele>
        <time>2026-06-30T14:10:43.574Z</time>
      </trkpt>
      <trkpt lat="51.927334" lon="8.805048">
        <ele>165.323436</ele>
        <time>2026-06-30T14:10:49.172Z</time>
      </trkpt>
      <trkpt lat="51.927473" lon="8.805463">
        <ele>165.164444</ele>
        <time>2026-06-30T14:10:55.717Z</time>
      </trkpt>
      <trkpt lat="51.927618" lon="8.805895">
        <ele>164.998861</ele>
        <time>2026-06-30T14:11:02.458Z</time>
      </trkpt>
      <trkpt lat="51.927775" lon="8.805954">
        <ele>164.910877</ele>
        <time>2026-06-30T14:11:06.049Z</time>
      </trkpt>
      <trkpt lat="51.927854" lon="8.805933">
        <ele>164.867172</ele>
        <time>2026-06-30T14:11:07.873Z</time>
      </trkpt>
      <trkpt lat="51.928069" lon="8.805900">
        <ele>164.813115</ele>
        <time>2026-06-30T14:11:12.839Z</time>
      </trkpt>
      <trkpt lat="51.928281" lon="8.805933">
        <ele>164.769912</ele>
        <time>2026-06-30T14:11:17.706Z</time>
      </trkpt>
      <trkpt lat="51.928597" lon="8.806214">
        <ele>164.696805</ele>
        <time>2026-06-30T14:11:25.559Z</time>
      </trkpt>
      <trkpt lat="51.928685" lon="8.806281">
        <ele>164.677084</ele>
        <time>2026-06-30T14:11:27.630Z</time>
      </trkpt>
      <trkpt lat="51.928952" lon="8.806539">
        <ele>164.614036</ele>
        <time>2026-06-30T14:11:34.313Z</time>
      </trkpt>
      <trkpt lat="51.929286" lon="8.806849">
        <ele>164.535970</ele>
        <time>2026-06-30T14:11:43.180Z</time>
      </trkpt>
      <trkpt lat="51.929489" lon="8.807037">
        <ele>164.488548</ele>
        <time>2026-06-30T14:11:48.877Z</time>
      </trkpt>
      <trkpt lat="51.929727" lon="8.807232">
        <ele>165.454524</ele>
        <time>2026-06-30T14:11:55.544Z</time>
      </trkpt>
      <trkpt lat="51.930107" lon="8.807560">
        <ele>167.095397</ele>
        <time>2026-06-30T14:12:06.473Z</time>
      </trkpt>
      <trkpt lat="51.930389" lon="8.807823">
        <ele>168.335395</ele>
        <time>2026-06-30T14:12:15.131Z</time>
      </trkpt>
      <trkpt lat="51.931291" lon="8.808319">
        <ele>172.424143</ele>
        <time>2026-06-30T14:12:42.654Z</time>
      </trkpt>
      <trkpt lat="51.931683" lon="8.808582">
        <ele>175.228969</ele>
        <time>2026-06-30T14:12:55.889Z</time>
      </trkpt>
      <trkpt lat="51.932479" lon="8.809428">
        <ele>181.521327</ele>
        <time>2026-06-30T14:13:26.876Z</time>
      </trkpt>
      <trkpt lat="51.932522" lon="8.809524">
        <ele>182.005059</ele>
        <time>2026-06-30T14:13:29.147Z</time>
      </trkpt>
      <trkpt lat="51.932801" lon="8.810268">
        <ele>183.666429</ele>
        <time>2026-06-30T14:13:44.746Z</time>
      </trkpt>
      <trkpt lat="51.932944" lon="8.810750">
        <ele>184.072524</ele>
        <time>2026-06-30T14:13:53.487Z</time>
      </trkpt>
      <trkpt lat="51.933093" lon="8.811370">
        <ele>184.577721</ele>
        <time>2026-06-30T14:14:03.635Z</time>
      </trkpt>
      <trkpt lat="51.933319" lon="8.812304">
        <ele>185.339463</ele>
        <time>2026-06-30T14:14:15.804Z</time>
      </trkpt>
      <trkpt lat="51.933395" lon="8.812511">
        <ele>185.314739</ele>
        <time>2026-06-30T14:14:18.446Z</time>
      </trkpt>
      <trkpt lat="51.933532" lon="8.812896">
        <ele>184.698376</ele>
        <time>2026-06-30T14:14:23.316Z</time>
      </trkpt>
      <trkpt lat="51.933682" lon="8.813314">
        <ele>184.027766</ele>
        <time>2026-06-30T14:14:28.669Z</time>
      </trkpt>
      <trkpt lat="51.934027" lon="8.814080">
        <ele>182.712454</ele>
        <time>2026-06-30T14:14:38.127Z</time>
      </trkpt>
      <trkpt lat="51.934731" lon="8.815635">
        <ele>181.860402</ele>
        <time>2026-06-30T14:15:02.739Z</time>
      </trkpt>
      <trkpt lat="51.934864" lon="8.815946">
        <ele>182.035670</ele>
        <time>2026-06-30T14:15:08.309Z</time>
      </trkpt>
      <trkpt lat="51.935220" lon="8.816760">
        <ele>182.497812</ele>
        <time>2026-06-30T14:15:22.989Z</time>
      </trkpt>
      <trkpt lat="51.935604" lon="8.817545">
        <ele>181.428909</ele>
        <time>2026-06-30T14:15:36.296Z</time>
      </trkpt>
      <trkpt lat="51.935756" lon="8.817866">
        <ele>180.227822</ele>
        <time>2026-06-30T14:15:40.578Z</time>
      </trkpt>
      <trkpt lat="51.936787" lon="8.819062">
        <ele>174.126964</ele>
        <time>2026-06-30T14:15:58.891Z</time>
      </trkpt>
      <trkpt lat="51.937197" lon="8.819540">
        <ele>170.318363</ele>
        <time>2026-06-30T14:16:05.911Z</time>
      </trkpt>
      <trkpt lat="51.937989" lon="8.820462">
        <ele>162.932721</ele>
        <time>2026-06-30T14:16:19.644Z</time>
      </trkpt>
      <trkpt lat="51.938273" lon="8.820951">
        <ele>159.982840</ele>
        <time>2026-06-30T14:16:25.515Z</time>
      </trkpt>
      <trkpt lat="51.938353" lon="8.821088">
        <ele>159.346348</ele>
        <time>2026-06-30T14:16:27.174Z</time>
      </trkpt>
      <trkpt lat="51.938705" lon="8.821431">
        <ele>157.099688</ele>
        <time>2026-06-30T14:16:33.111Z</time>
      </trkpt>
      <trkpt lat="51.939186" lon="8.821898">
        <ele>154.032636</ele>
        <time>2026-06-30T14:16:41.433Z</time>
      </trkpt>
      <trkpt lat="51.940696" lon="8.823439">
        <ele>146.809027</ele>
        <time>2026-06-30T14:17:09.572Z</time>
      </trkpt>
      <trkpt lat="51.941533" lon="8.824277">
        <ele>144.534621</ele>
        <time>2026-06-30T14:17:26.393Z</time>
      </trkpt>
      <trkpt lat="51.941672" lon="8.824371">
        <ele>144.455864</ele>
        <time>2026-06-30T14:17:29.269Z</time>
      </trkpt>
      <trkpt lat="51.941747" lon="8.824349">
        <ele>144.416005</ele>
        <time>2026-06-30T14:17:30.738Z</time>
      </trkpt>
      <trkpt lat="51.941762" lon="8.824491">
        <ele>144.369558</ele>
        <time>2026-06-30T14:17:32.503Z</time>
      </trkpt>
      <trkpt lat="51.941698" lon="8.825403">
        <ele>144.073636</ele>
        <time>2026-06-30T14:17:44.682Z</time>
      </trkpt>
      <trkpt lat="51.941674" lon="8.825669">
        <ele>143.986966</ele>
        <time>2026-06-30T14:17:48.427Z</time>
      </trkpt>
      <trkpt lat="51.941582" lon="8.826711">
        <ele>143.790816</ele>
        <time>2026-06-30T14:18:03.492Z</time>
      </trkpt>
      <trkpt lat="51.941547" lon="8.827063">
        <ele>143.804565</ele>
        <time>2026-06-30T14:18:08.553Z</time>
      </trkpt>
      <trkpt lat="51.941431" lon="8.828502">
        <ele>143.860525</ele>
        <time>2026-06-30T14:18:28.432Z</time>
      </trkpt>
      <trkpt lat="51.941391" lon="8.828937">
        <ele>143.877484</ele>
        <time>2026-06-30T14:18:34.190Z</time>
      </trkpt>
      <trkpt lat="51.941341" lon="8.829409">
        <ele>143.670346</ele>
        <time>2026-06-30T14:18:40.288Z</time>
      </trkpt>
      <trkpt lat="51.941303" lon="8.829878">
        <ele>143.169580</ele>
        <time>2026-06-30T14:18:46.106Z</time>
      </trkpt>
      <trkpt lat="51.941298" lon="8.830342">
        <ele>142.678302</ele>
        <time>2026-06-30T14:18:51.586Z</time>
      </trkpt>
      <trkpt lat="51.941434" lon="8.831828">
        <ele>141.087942</ele>
        <time>2026-06-30T14:19:08.636Z</time>
      </trkpt>
      <trkpt lat="51.941474" lon="8.832229">
        <ele>140.600803</ele>
        <time>2026-06-30T14:19:13.084Z</time>
      </trkpt>
      <trkpt lat="51.941489" lon="8.832381">
        <ele>140.372026</ele>
        <time>2026-06-30T14:19:14.763Z</time>
      </trkpt>
      <trkpt lat="51.941662" lon="8.834500">
        <ele>137.195298</ele>
        <time>2026-06-30T14:19:38.149Z</time>
      </trkpt>
      <trkpt lat="51.941756" lon="8.835199">
        <ele>136.285531</ele>
        <time>2026-06-30T14:19:46.168Z</time>
      </trkpt>
      <trkpt lat="51.941861" lon="8.836011">
        <ele>135.624196</ele>
        <time>2026-06-30T14:19:55.113Z</time>
      </trkpt>
      <trkpt lat="51.941907" lon="8.837019">
        <ele>134.818518</ele>
        <time>2026-06-30T14:20:06.441Z</time>
      </trkpt>
      <trkpt lat="51.941980" lon="8.837371">
        <ele>134.522486</ele>
        <time>2026-06-30T14:20:11.178Z</time>
      </trkpt>
      <trkpt lat="51.942060" lon="8.837587">
        <ele>134.321628</ele>
        <time>2026-06-30T14:20:14.484Z</time>
      </trkpt>
      <trkpt lat="51.942143" lon="8.837720">
        <ele>134.170774</ele>
        <time>2026-06-30T14:20:16.988Z</time>
      </trkpt>
      <trkpt lat="51.942232" lon="8.837851">
        <ele>134.144642</ele>
        <time>2026-06-30T14:20:19.588Z</time>
      </trkpt>
      <trkpt lat="51.942251" lon="8.837895">
        <ele>134.147183</ele>
        <time>2026-06-30T14:20:20.302Z</time>
      </trkpt>
      <trkpt lat="51.942260" lon="8.837930">
        <ele>134.148978</ele>
        <time>2026-06-30T14:20:20.803Z</time>
      </trkpt>
      <trkpt lat="51.942279" lon="8.838042">
        <ele>134.154474</ele>
        <time>2026-06-30T14:20:22.356Z</time>
      </trkpt>
      <trkpt lat="51.942282" lon="8.838075">
        <ele>134.156052</ele>
        <time>2026-06-30T14:20:22.793Z</time>
      </trkpt>
      <trkpt lat="51.942290" lon="8.838210">
        <ele>134.162469</ele>
        <time>2026-06-30T14:20:24.577Z</time>
      </trkpt>
      <trkpt lat="51.942180" lon="8.838772">
        <ele>134.190367</ele>
        <time>2026-06-30T14:20:32.418Z</time>
      </trkpt>
      <trkpt lat="51.942138" lon="8.839115">
        <ele>134.206912</ele>
        <time>2026-06-30T14:20:37.072Z</time>
      </trkpt>
      <trkpt lat="51.942123" lon="8.839548">
        <ele>134.227431</ele>
        <time>2026-06-30T14:20:42.887Z</time>
      </trkpt>
      <trkpt lat="51.942098" lon="8.840148">
        <ele>134.255884</ele>
        <time>2026-06-30T14:20:51.030Z</time>
      </trkpt>
      <trkpt lat="51.941949" lon="8.841048">
        <ele>133.888005</ele>
        <time>2026-06-30T14:21:02.533Z</time>
      </trkpt>
      <trkpt lat="51.941925" lon="8.841239">
        <ele>133.742333</ele>
        <time>2026-06-30T14:21:04.853Z</time>
      </trkpt>
      <trkpt lat="51.941913" lon="8.841529">
        <ele>133.525123</ele>
        <time>2026-06-30T14:21:08.283Z</time>
      </trkpt>
      <trkpt lat="51.941912" lon="8.841749">
        <ele>133.360709</ele>
        <time>2026-06-30T14:21:10.871Z</time>
      </trkpt>
      <trkpt lat="51.941928" lon="8.842021">
        <ele>133.156516</ele>
        <time>2026-06-30T14:21:14.040Z</time>
      </trkpt>
      <trkpt lat="51.941971" lon="8.842266">
        <ele>132.966147</ele>
        <time>2026-06-30T14:21:16.980Z</time>
      </trkpt>
      <trkpt lat="51.941904" lon="8.842513">
        <ele>132.764481</ele>
        <time>2026-06-30T14:21:20.039Z</time>
      </trkpt>
      <trkpt lat="51.941921" lon="8.842532">
        <ele>132.739454</ele>
        <time>2026-06-30T14:21:20.553Z</time>
      </trkpt>
      <trkpt lat="51.942023" lon="8.842808">
        <ele>132.498971</ele>
        <time>2026-06-30T14:21:24.164Z</time>
      </trkpt>
      <trkpt lat="51.942094" lon="8.843097">
        <ele>132.266478</ele>
        <time>2026-06-30T14:21:27.642Z</time>
      </trkpt>
      <trkpt lat="51.942381" lon="8.844330">
        <ele>130.967977</ele>
        <time>2026-06-30T14:21:42.015Z</time>
      </trkpt>
      <trkpt lat="51.942492" lon="8.844987">
        <ele>130.262649</ele>
        <time>2026-06-30T14:21:49.448Z</time>
      </trkpt>
      <trkpt lat="51.942462" lon="8.845488">
        <ele>129.741483</ele>
        <time>2026-06-30T14:21:55.047Z</time>
      </trkpt>
      <trkpt lat="51.942449" lon="8.845645">
        <ele>129.577469</ele>
        <time>2026-06-30T14:21:56.850Z</time>
      </trkpt>
      <trkpt lat="51.942416" lon="8.846267">
        <ele>128.982140</ele>
        <time>2026-06-30T14:22:04.171Z</time>
      </trkpt>
      <trkpt lat="51.942290" lon="8.848095">
        <ele>127.757785</ele>
        <time>2026-06-30T14:22:26.030Z</time>
      </trkpt>
      <trkpt lat="51.942287" lon="8.848156">
        <ele>127.717052</ele>
        <time>2026-06-30T14:22:26.752Z</time>
      </trkpt>
      <trkpt lat="51.942239" lon="8.848838">
        <ele>127.260143</ele>
        <time>2026-06-30T14:22:34.884Z</time>
      </trkpt>
      <trkpt lat="51.942160" lon="8.849988">
        <ele>127.059683</ele>
        <time>2026-06-30T14:22:48.724Z</time>
      </trkpt>
      <trkpt lat="51.942173" lon="8.850071">
        <ele>127.053269</ele>
        <time>2026-06-30T14:22:49.781Z</time>
      </trkpt>
      <trkpt lat="51.942158" lon="8.850263">
        <ele>127.038773</ele>
        <time>2026-06-30T14:22:52.223Z</time>
      </trkpt>
      <trkpt lat="51.942098" lon="8.850985">
        <ele>126.984205</ele>
        <time>2026-06-30T14:23:01.847Z</time>
      </trkpt>
      <trkpt lat="51.941926" lon="8.852341">
        <ele>126.854772</ele>
        <time>2026-06-30T14:23:20.661Z</time>
      </trkpt>
      <trkpt lat="51.941865" lon="8.852844">
        <ele>126.786311</ele>
        <time>2026-06-30T14:23:27.539Z</time>
      </trkpt>
      <trkpt lat="51.941921" lon="8.852880">
        <ele>126.773262</ele>
        <time>2026-06-30T14:23:28.836Z</time>
      </trkpt>
      <trkpt lat="51.942006" lon="8.852954">
        <ele>126.752364</ele>
        <time>2026-06-30T14:23:30.889Z</time>
      </trkpt>
      <trkpt lat="51.942059" lon="8.852984">
        <ele>126.740204</ele>
        <time>2026-06-30T14:23:32.090Z</time>
      </trkpt>
      <trkpt lat="51.942074" lon="8.853245">
        <ele>126.705197</ele>
        <time>2026-06-30T14:23:35.489Z</time>
      </trkpt>
      <trkpt lat="51.942059" lon="8.853315">
        <ele>126.695300</ele>
        <time>2026-06-30T14:23:36.424Z</time>
      </trkpt>
      <trkpt lat="51.942036" lon="8.853460">
        <ele>126.675306</ele>
        <time>2026-06-30T14:23:38.344Z</time>
      </trkpt>
      <trkpt lat="51.942228" lon="8.853537">
        <ele>126.632460</ele>
        <time>2026-06-30T14:23:42.504Z</time>
      </trkpt>
      <trkpt lat="51.942604" lon="8.853834">
        <ele>126.541863</ele>
        <time>2026-06-30T14:23:51.013Z</time>
      </trkpt>
      <trkpt lat="51.942732" lon="8.853918">
        <ele>126.466910</ele>
        <time>2026-06-30T14:23:53.782Z</time>
      </trkpt>
      <trkpt lat="51.942783" lon="8.853950">
        <ele>126.409807</ele>
        <time>2026-06-30T14:23:54.864Z</time>
      </trkpt>
      <trkpt lat="51.942893" lon="8.854020">
        <ele>126.286413</ele>
        <time>2026-06-30T14:23:57.236Z</time>
      </trkpt>
      <trkpt lat="51.943229" lon="8.854240">
        <ele>125.908029</ele>
        <time>2026-06-30T14:24:04.381Z</time>
      </trkpt>
      <trkpt lat="51.943355" lon="8.854330">
        <ele>125.764258</ele>
        <time>2026-06-30T14:24:07.117Z</time>
      </trkpt>
      <trkpt lat="51.944215" lon="8.854892">
        <ele>124.796042</ele>
        <time>2026-06-30T14:24:25.829Z</time>
      </trkpt>
      <trkpt lat="51.944695" lon="8.855193">
        <ele>124.405770</ele>
        <time>2026-06-30T14:24:36.404Z</time>
      </trkpt>
      <trkpt lat="51.945547" lon="8.855760">
        <ele>123.809892</ele>
        <time>2026-06-30T14:24:55.527Z</time>
      </trkpt>
      <trkpt lat="51.945934" lon="8.855934">
        <ele>123.550041</ele>
        <time>2026-06-30T14:25:03.870Z</time>
      </trkpt>
      <trkpt lat="51.946305" lon="8.855980">
        <ele>123.583632</ele>
        <time>2026-06-30T14:25:11.805Z</time>
      </trkpt>
      <trkpt lat="51.946346" lon="8.855978">
        <ele>123.599345</ele>
        <time>2026-06-30T14:25:12.697Z</time>
      </trkpt>
      <trkpt lat="51.946667" lon="8.855910">
        <ele>123.723353</ele>
        <time>2026-06-30T14:25:19.813Z</time>
      </trkpt>
      <trkpt lat="51.946776" lon="8.856225">
        <ele>123.808649</ele>
        <time>2026-06-30T14:25:25.125Z</time>
      </trkpt>
      <trkpt lat="51.947281" lon="8.857177">
        <ele>124.105213</ele>
        <time>2026-06-30T14:25:43.898Z</time>
      </trkpt>
      <trkpt lat="51.947419" lon="8.857339">
        <ele>124.170464</ele>
        <time>2026-06-30T14:25:48.088Z</time>
      </trkpt>
      <trkpt lat="51.947669" lon="8.857532">
        <ele>124.380444</ele>
        <time>2026-06-30T14:25:54.900Z</time>
      </trkpt>
      <trkpt lat="51.947895" lon="8.858106">
        <ele>124.699070</ele>
        <time>2026-06-30T14:26:05.210Z</time>
      </trkpt>
      <trkpt lat="51.947886" lon="8.858189">
        <ele>124.738494</ele>
        <time>2026-06-30T14:26:06.483Z</time>
      </trkpt>
      <trkpt lat="51.947810" lon="8.858382">
        <ele>124.845631</ele>
        <time>2026-06-30T14:26:09.919Z</time>
      </trkpt>
      <trkpt lat="51.947381" lon="8.858847">
        <ele>125.237203</ele>
        <time>2026-06-30T14:26:22.313Z</time>
      </trkpt>
      <trkpt lat="51.947212" lon="8.859393">
        <ele>125.523021</ele>
        <time>2026-06-30T14:26:31.259Z</time>
      </trkpt>
      <trkpt lat="51.947152" lon="8.859489">
        <ele>125.617346</ele>
        <time>2026-06-30T14:26:33.256Z</time>
      </trkpt>
      <trkpt lat="51.947018" lon="8.859891">
        <ele>125.957742</ele>
        <time>2026-06-30T14:26:40.003Z</time>
      </trkpt>
      <trkpt lat="51.946981" lon="8.860151">
        <ele>126.156491</ele>
        <time>2026-06-30T14:26:44.005Z</time>
      </trkpt>
      <trkpt lat="51.946990" lon="8.860260">
        <ele>126.238402</ele>
        <time>2026-06-30T14:26:45.661Z</time>
      </trkpt>
      <trkpt lat="51.947036" lon="8.860377">
        <ele>126.341764</ele>
        <time>2026-06-30T14:26:47.753Z</time>
      </trkpt>
      <trkpt lat="51.947172" lon="8.860581">
        <ele>126.565580</ele>
        <time>2026-06-30T14:26:52.304Z</time>
      </trkpt>
      <trkpt lat="51.947595" lon="8.860952">
        <ele>127.146630</ele>
        <time>2026-06-30T14:27:04.181Z</time>
      </trkpt>
      <trkpt lat="51.947603" lon="8.860973">
        <ele>127.165017</ele>
        <time>2026-06-30T14:27:04.561Z</time>
      </trkpt>
      <trkpt lat="51.947749" lon="8.861345">
        <ele>127.493487</ele>
        <time>2026-06-30T14:27:11.340Z</time>
      </trkpt>
      <trkpt lat="51.947781" lon="8.861515">
        <ele>127.625878</ele>
        <time>2026-06-30T14:27:14.083Z</time>
      </trkpt>
      <trkpt lat="51.947754" lon="8.861660">
        <ele>127.742985</ele>
        <time>2026-06-30T14:27:16.434Z</time>
      </trkpt>
      <trkpt lat="51.947566" lon="8.862038">
        <ele>128.157200</ele>
        <time>2026-06-30T14:27:23.975Z</time>
      </trkpt>
      <trkpt lat="51.947560" lon="8.862166">
        <ele>128.266674</ele>
        <time>2026-06-30T14:27:25.967Z</time>
      </trkpt>
      <trkpt lat="51.947602" lon="8.862327">
        <ele>128.415766</ele>
        <time>2026-06-30T14:27:28.574Z</time>
      </trkpt>
      <trkpt lat="51.947621" lon="8.862387">
        <ele>128.473293</ele>
        <time>2026-06-30T14:27:29.606Z</time>
      </trkpt>
      <trkpt lat="51.947705" lon="8.862454">
        <ele>128.602798</ele>
        <time>2026-06-30T14:27:31.948Z</time>
      </trkpt>
      <trkpt lat="51.947899" lon="8.862445">
        <ele>128.871320</ele>
        <time>2026-06-30T14:27:36.779Z</time>
      </trkpt>
      <trkpt lat="51.948237" lon="8.862662">
        <ele>129.374250</ele>
        <time>2026-06-30T14:27:45.706Z</time>
      </trkpt>
      <trkpt lat="51.948428" lon="8.862727">
        <ele>129.644262</ele>
        <time>2026-06-30T14:27:50.443Z</time>
      </trkpt>
      <trkpt lat="51.948409" lon="8.862865">
        <ele>129.764847</ele>
        <time>2026-06-30T14:27:52.379Z</time>
      </trkpt>
      <trkpt lat="51.948279" lon="8.863561">
        <ele>130.288347</ele>
        <time>2026-06-30T14:28:02.461Z</time>
      </trkpt>
      <trkpt lat="51.948037" lon="8.864372">
        <ele>130.660238</ele>
        <time>2026-06-30T14:28:14.690Z</time>
      </trkpt>
      <trkpt lat="51.948010" lon="8.864450">
        <ele>130.697160</ele>
        <time>2026-06-30T14:28:15.845Z</time>
      </trkpt>
      <trkpt lat="51.947963" lon="8.864587">
        <ele>130.761874</ele>
        <time>2026-06-30T14:28:17.897Z</time>
      </trkpt>
      <trkpt lat="51.947873" lon="8.864856">
        <ele>130.888202</ele>
        <time>2026-06-30T14:28:21.902Z</time>
      </trkpt>
      <trkpt lat="51.947720" lon="8.865332">
        <ele>131.109775</ele>
        <time>2026-06-30T14:28:29.021Z</time>
      </trkpt>
      <trkpt lat="51.947670" lon="8.865660">
        <ele>131.249233</ele>
        <time>2026-06-30T14:28:33.634Z</time>
      </trkpt>
      <trkpt lat="51.947676" lon="8.865884">
        <ele>131.341774</ele>
        <time>2026-06-30T14:28:36.762Z</time>
      </trkpt>
      <trkpt lat="51.947680" lon="8.866227">
        <ele>131.714892</ele>
        <time>2026-06-30T14:28:41.628Z</time>
      </trkpt>
      <trkpt lat="51.947681" lon="8.866376">
        <ele>131.951516</ele>
        <time>2026-06-30T14:28:43.738Z</time>
      </trkpt>
      <trkpt lat="51.947673" lon="8.866494">
        <ele>132.140028</ele>
        <time>2026-06-30T14:28:45.413Z</time>
      </trkpt>
      <trkpt lat="51.947592" lon="8.866794">
        <ele>132.660124</ele>
        <time>2026-06-30T14:28:50.013Z</time>
      </trkpt>
      <trkpt lat="51.947582" lon="8.866934">
        <ele>132.883930</ele>
        <time>2026-06-30T14:28:52.467Z</time>
      </trkpt>
      <trkpt lat="51.947565" lon="8.867003">
        <ele>133.001930</ele>
        <time>2026-06-30T14:28:53.745Z</time>
      </trkpt>
      <trkpt lat="51.947570" lon="8.867120">
        <ele>133.188171</ele>
        <time>2026-06-30T14:28:55.790Z</time>
      </trkpt>
      <trkpt lat="51.947542" lon="8.867198">
        <ele>133.331509</ele>
        <time>2026-06-30T14:28:57.086Z</time>
      </trkpt>
      <trkpt lat="51.947513" lon="8.867278">
        <ele>133.478889</ele>
        <time>2026-06-30T14:28:58.432Z</time>
      </trkpt>
      <trkpt lat="51.947645" lon="8.867393">
        <ele>133.864892</ele>
        <time>2026-06-30T14:29:02.683Z</time>
      </trkpt>
      <trkpt lat="51.947801" lon="8.867534">
        <ele>134.324957</ele>
        <time>2026-06-30T14:29:07.832Z</time>
      </trkpt>
      <trkpt lat="51.948055" lon="8.867758">
        <ele>135.069767</ele>
        <time>2026-06-30T14:29:16.265Z</time>
      </trkpt>
      <trkpt lat="51.948385" lon="8.868082">
        <ele>136.068920</ele>
        <time>2026-06-30T14:29:27.616Z</time>
      </trkpt>
      <trkpt lat="51.948635" lon="8.868368">
        <ele>137.011648</ele>
        <time>2026-06-30T14:29:36.630Z</time>
      </trkpt>
      <trkpt lat="51.948937" lon="8.868896">
        <ele>138.379902</ele>
        <time>2026-06-30T14:29:49.530Z</time>
      </trkpt>
      <trkpt lat="51.948960" lon="8.868941">
        <ele>138.490946</ele>
        <time>2026-06-30T14:29:50.563Z</time>
      </trkpt>
      <trkpt lat="51.949068" lon="8.869193">
        <ele>139.073965</ele>
        <time>2026-06-30T14:29:56.066Z</time>
      </trkpt>
      <trkpt lat="51.949182" lon="8.869578">
        <ele>139.885288</ele>
        <time>2026-06-30T14:30:03.697Z</time>
      </trkpt>
      <trkpt lat="51.949228" lon="8.869525">
        <ele>140.059161</ele>
        <time>2026-06-30T14:30:05.074Z</time>
      </trkpt>
      <trkpt lat="51.949264" lon="8.869697">
        <ele>140.404199</ele>
        <time>2026-06-30T14:30:07.775Z</time>
      </trkpt>
      <trkpt lat="51.949280" lon="8.869832">
        <ele>140.665330</ele>
        <time>2026-06-30T14:30:09.811Z</time>
      </trkpt>
      <trkpt lat="51.949355" lon="8.869757">
        <ele>140.936843</ele>
        <time>2026-06-30T14:30:11.916Z</time>
      </trkpt>
      <trkpt lat="51.949462" lon="8.869644">
        <ele>141.330300</ele>
        <time>2026-06-30T14:30:14.928Z</time>
      </trkpt>
      <trkpt lat="51.949541" lon="8.869551">
        <ele>141.592689</ele>
        <time>2026-06-30T14:30:17.207Z</time>
      </trkpt>
      <trkpt lat="51.949559" lon="8.869467">
        <ele>141.637108</ele>
        <time>2026-06-30T14:30:18.473Z</time>
      </trkpt>
      <trkpt lat="51.949587" lon="8.869434">
        <ele>141.665153</ele>
        <time>2026-06-30T14:30:19.266Z</time>
      </trkpt>
      <trkpt lat="51.949786" lon="8.869205">
        <ele>141.862862</ele>
        <time>2026-06-30T14:30:24.883Z</time>
      </trkpt>
      <trkpt lat="51.949930" lon="8.869051">
        <ele>142.002625</ele>
        <time>2026-06-30T14:30:28.766Z</time>
      </trkpt>
      <trkpt lat="51.950215" lon="8.868716">
        <ele>142.287821</ele>
        <time>2026-06-30T14:30:36.581Z</time>
      </trkpt>
      <trkpt lat="51.950245" lon="8.868783">
        <ele>142.329184</ele>
        <time>2026-06-30T14:30:37.711Z</time>
      </trkpt>
      <trkpt lat="51.950418" lon="8.869160">
        <ele>142.563941</ele>
        <time>2026-06-30T14:30:44.064Z</time>
      </trkpt>
      <trkpt lat="51.950486" lon="8.869259">
        <ele>142.637979</ele>
        <time>2026-06-30T14:30:46.050Z</time>
      </trkpt>
      <trkpt lat="51.950652" lon="8.869365">
        <ele>142.782543</ele>
        <time>2026-06-30T14:30:49.863Z</time>
      </trkpt>
      <trkpt lat="51.950872" lon="8.869459">
        <ele>142.966903</ele>
        <time>2026-06-30T14:30:54.649Z</time>
      </trkpt>
      <trkpt lat="51.952426" lon="8.870050">
        <ele>142.562609</ele>
        <time>2026-06-30T14:31:27.884Z</time>
      </trkpt>
      <trkpt lat="51.952357" lon="8.870464">
        <ele>142.479658</ele>
        <time>2026-06-30T14:31:33.173Z</time>
      </trkpt>
      <trkpt lat="51.953593" lon="8.870715">
        <ele>141.367581</ele>
        <time>2026-06-30T14:31:56.566Z</time>
      </trkpt>
      <trkpt lat="51.953997" lon="8.870794">
        <ele>140.999633</ele>
        <time>2026-06-30T14:32:04.446Z</time>
      </trkpt>
      <trkpt lat="51.954329" lon="8.870859">
        <ele>141.064200</ele>
        <time>2026-06-30T14:32:11.243Z</time>
      </trkpt>
      <trkpt lat="51.954446" lon="8.870850">
        <ele>141.220077</ele>
        <time>2026-06-30T14:32:13.786Z</time>
      </trkpt>
      <trkpt lat="51.954498" lon="8.870861">
        <ele>141.289864</ele>
        <time>2026-06-30T14:32:17.434Z</time>
      </trkpt>
      <trkpt lat="51.954722" lon="8.870801">
        <ele>141.591995</ele>
        <time>2026-06-30T14:32:33.192Z</time>
      </trkpt>
      <trkpt lat="51.955230" lon="8.870786">
        <ele>142.268149</ele>
        <time>2026-06-30T14:32:45.000Z</time>
      </trkpt>
      <trkpt lat="51.956461" lon="8.871112">
        <ele>143.496035</ele>
        <time>2026-06-30T14:33:14.355Z</time>
      </trkpt>
      <trkpt lat="51.956514" lon="8.870823">
        <ele>143.588208</ele>
        <time>2026-06-30T14:33:18.599Z</time>
      </trkpt>
      <trkpt lat="51.957838" lon="8.870962">
        <ele>143.936489</ele>
        <time>2026-06-30T14:34:04.576Z</time>
      </trkpt>
      <trkpt lat="51.958046" lon="8.870984">
        <ele>143.760840</ele>
        <time>2026-06-30T14:34:11.256Z</time>
      </trkpt>
      <trkpt lat="51.958655" lon="8.870976">
        <ele>143.247632</ele>
        <time>2026-06-30T14:34:31.179Z</time>
      </trkpt>
      <trkpt lat="51.959060" lon="8.870981">
        <ele>142.906338</ele>
        <time>2026-06-30T14:34:38.957Z</time>
      </trkpt>
      <trkpt lat="51.959148" lon="8.871511">
        <ele>142.621305</ele>
        <time>2026-06-30T14:34:45.720Z</time>
      </trkpt>
      <trkpt lat="51.959181" lon="8.872121">
        <ele>142.994814</ele>
        <time>2026-06-30T14:34:53.893Z</time>
      </trkpt>
      <trkpt lat="51.959200" lon="8.872431">
        <ele>143.190973</ele>
        <time>2026-06-30T14:34:58.208Z</time>
      </trkpt>
      <trkpt lat="51.959255" lon="8.872920">
        <ele>143.503965</ele>
        <time>2026-06-30T14:35:05.200Z</time>
      </trkpt>
      <trkpt lat="51.959276" lon="8.873053">
        <ele>143.590416</ele>
        <time>2026-06-30T14:35:07.155Z</time>
      </trkpt>
      <trkpt lat="51.959325" lon="8.873347">
        <ele>143.782188</ele>
        <time>2026-06-30T14:35:11.468Z</time>
      </trkpt>
      <trkpt lat="51.959423" lon="8.873935">
        <ele>144.165732</ele>
        <time>2026-06-30T14:35:20.064Z</time>
      </trkpt>
      <trkpt lat="51.959494" lon="8.874372">
        <ele>144.450297</ele>
        <time>2026-06-30T14:35:26.489Z</time>
      </trkpt>
      <trkpt lat="51.959555" lon="8.874872">
        <ele>144.864991</ele>
        <time>2026-06-30T14:35:33.712Z</time>
      </trkpt>
      <trkpt lat="51.959613" lon="8.875300">
        <ele>145.222401</ele>
        <time>2026-06-30T14:35:39.869Z</time>
      </trkpt>
      <trkpt lat="51.959707" lon="8.876124">
        <ele>145.905858</ele>
        <time>2026-06-30T14:35:51.460Z</time>
      </trkpt>
      <trkpt lat="51.959738" lon="8.876428">
        <ele>146.157166</ele>
        <time>2026-06-30T14:35:55.746Z</time>
      </trkpt>
      <trkpt lat="51.959765" lon="8.876743">
        <ele>146.416547</ele>
        <time>2026-06-30T14:36:00.198Z</time>
      </trkpt>
      <trkpt lat="51.959797" lon="8.877013">
        <ele>146.640789</ele>
        <time>2026-06-30T14:36:04.087Z</time>
      </trkpt>
      <trkpt lat="51.959808" lon="8.877247">
        <ele>146.832189</ele>
        <time>2026-06-30T14:36:07.437Z</time>
      </trkpt>
      <trkpt lat="51.959839" lon="8.877513">
        <ele>147.097982</ele>
        <time>2026-06-30T14:36:11.300Z</time>
      </trkpt>
      <trkpt lat="51.959845" lon="8.877560">
        <ele>147.145184</ele>
        <time>2026-06-30T14:36:11.976Z</time>
      </trkpt>
      <trkpt lat="51.960004" lon="8.878405">
        <ele>148.014046</ele>
        <time>2026-06-30T14:36:24.676Z</time>
      </trkpt>
      <trkpt lat="51.960021" lon="8.878919">
        <ele>148.520246</ele>
        <time>2026-06-30T14:36:32.179Z</time>
      </trkpt>
      <trkpt lat="51.960025" lon="8.879062">
        <ele>148.661018</ele>
        <time>2026-06-30T14:36:34.265Z</time>
      </trkpt>
      <trkpt lat="51.959953" lon="8.880029">
        <ele>149.618893</ele>
        <time>2026-06-30T14:36:48.025Z</time>
      </trkpt>
      <trkpt lat="51.959880" lon="8.880522">
        <ele>149.786042</ele>
        <time>2026-06-30T14:36:54.876Z</time>
      </trkpt>
      <trkpt lat="51.960342" lon="8.880568">
        <ele>149.931540</ele>
        <time>2026-06-30T14:37:04.636Z</time>
      </trkpt>
      <trkpt lat="51.960447" lon="8.880601">
        <ele>149.965158</ele>
        <time>2026-06-30T14:37:06.793Z</time>
      </trkpt>
      <trkpt lat="51.960519" lon="8.880681">
        <ele>149.992587</ele>
        <time>2026-06-30T14:37:08.522Z</time>
      </trkpt>
      <trkpt lat="51.960572" lon="8.880887">
        <ele>150.035827</ele>
        <time>2026-06-30T14:37:11.259Z</time>
      </trkpt>
      <trkpt lat="51.961177" lon="8.884428">
        <ele>151.513338</ele>
        <time>2026-06-30T14:38:00.804Z</time>
      </trkpt>
      <trkpt lat="51.961230" lon="8.884741">
        <ele>151.677050</ele>
        <time>2026-06-30T14:38:05.509Z</time>
      </trkpt>
      <trkpt lat="51.961275" lon="8.885025">
        <ele>151.853394</ele>
        <time>2026-06-30T14:38:09.741Z</time>
      </trkpt>
      <trkpt lat="51.961337" lon="8.885426">
        <ele>152.133670</ele>
        <time>2026-06-30T14:38:15.717Z</time>
      </trkpt>
      <trkpt lat="51.961328" lon="8.885572">
        <ele>152.233141</ele>
        <time>2026-06-30T14:38:17.856Z</time>
      </trkpt>
      <trkpt lat="51.961370" lon="8.885613">
        <ele>152.287065</ele>
        <time>2026-06-30T14:38:21.256Z</time>
      </trkpt>
      <trkpt lat="51.961828" lon="8.886108">
        <ele>152.892465</ele>
        <time>2026-06-30T14:38:34.135Z</time>
      </trkpt>
      <trkpt lat="51.961919" lon="8.886212">
        <ele>153.014915</ele>
        <time>2026-06-30T14:38:36.651Z</time>
      </trkpt>
      <trkpt lat="51.962004" lon="8.886297">
        <ele>153.124759</ele>
        <time>2026-06-30T14:38:38.873Z</time>
      </trkpt>
      <trkpt lat="51.962031" lon="8.886333">
        <ele>153.163203</ele>
        <time>2026-06-30T14:38:39.642Z</time>
      </trkpt>
      <trkpt lat="51.962007" lon="8.886390">
        <ele>153.210005</ele>
        <time>2026-06-30T14:38:40.567Z</time>
      </trkpt>
      <trkpt lat="51.961980" lon="8.886456">
        <ele>153.263710</ele>
        <time>2026-06-30T14:38:41.632Z</time>
      </trkpt>
      <trkpt lat="51.962253" lon="8.886803">
        <ele>153.645216</ele>
        <time>2026-06-30T14:38:48.647Z</time>
      </trkpt>
      <trkpt lat="51.962404" lon="8.886911">
        <ele>153.721694</ele>
        <time>2026-06-30T14:38:51.956Z</time>
      </trkpt>
      <trkpt lat="51.962736" lon="8.887279">
        <ele>153.724087</ele>
        <time>2026-06-30T14:39:00.085Z</time>
      </trkpt>
      <trkpt lat="51.962998" lon="8.887583">
        <ele>153.726004</ele>
        <time>2026-06-30T14:39:06.719Z</time>
      </trkpt>
      <trkpt lat="51.963192" lon="8.887834">
        <ele>153.727480</ele>
        <time>2026-06-30T14:39:11.836Z</time>
      </trkpt>
      <trkpt lat="51.963218" lon="8.887985">
        <ele>153.728055</ele>
        <time>2026-06-30T14:39:13.828Z</time>
      </trkpt>
      <trkpt lat="51.963271" lon="8.888057">
        <ele>153.728467</ele>
        <time>2026-06-30T14:39:15.275Z</time>
      </trkpt>
      <trkpt lat="51.963315" lon="8.888131">
        <ele>153.728844</ele>
        <time>2026-06-30T14:39:16.591Z</time>
      </trkpt>
      <trkpt lat="51.963422" lon="8.888148">
        <ele>153.729484</ele>
        <time>2026-06-30T14:39:18.876Z</time>
      </trkpt>
      <trkpt lat="51.963708" lon="8.888595">
        <ele>153.735019</ele>
        <time>2026-06-30T14:39:27.551Z</time>
      </trkpt>
      <trkpt lat="51.963988" lon="8.889053">
        <ele>154.124789</ele>
        <time>2026-06-30T14:39:36.490Z</time>
      </trkpt>
      <trkpt lat="51.964140" lon="8.889306">
        <ele>154.338260</ele>
        <time>2026-06-30T14:39:41.424Z</time>
      </trkpt>
      <trkpt lat="51.964236" lon="8.889524">
        <ele>154.500135</ele>
        <time>2026-06-30T14:39:45.148Z</time>
      </trkpt>
      <trkpt lat="51.964751" lon="8.890361">
        <ele>155.214719</ele>
        <time>2026-06-30T14:40:01.504Z</time>
      </trkpt>
      <trkpt lat="51.965453" lon="8.891599">
        <ele>156.828567</ele>
        <time>2026-06-30T14:40:25.121Z</time>
      </trkpt>
      <trkpt lat="51.967251" lon="8.894457">
        <ele>161.367988</ele>
        <time>2026-06-30T14:41:24.337Z</time>
      </trkpt>
      <trkpt lat="51.967723" lon="8.895201">
        <ele>162.347367</ele>
        <time>2026-06-30T14:41:38.896Z</time>
      </trkpt>
      <trkpt lat="51.968049" lon="8.895600">
        <ele>162.817494</ele>
        <time>2026-06-30T14:41:47.935Z</time>
      </trkpt>
      <trkpt lat="51.968104" lon="8.895812">
        <ele>162.980676</ele>
        <time>2026-06-30T14:41:51.046Z</time>
      </trkpt>
      <trkpt lat="51.968073" lon="8.896451">
        <ele>163.435385</ele>
        <time>2026-06-30T14:41:59.748Z</time>
      </trkpt>
      <trkpt lat="51.968064" lon="8.896530">
        <ele>163.492377</ele>
        <time>2026-06-30T14:42:00.859Z</time>
      </trkpt>
      <trkpt lat="51.967991" lon="8.897365">
        <ele>164.197150</ele>
        <time>2026-06-30T14:42:12.803Z</time>
      </trkpt>
      <trkpt lat="51.967927" lon="8.898126">
        <ele>165.910011</ele>
        <time>2026-06-30T14:42:24.185Z</time>
      </trkpt>
      <trkpt lat="51.967891" lon="8.898565">
        <ele>166.897670</ele>
        <time>2026-06-30T14:42:30.864Z</time>
      </trkpt>
      <trkpt lat="51.965714" lon="8.898102">
        <ele>175.034659</ele>
        <time>2026-06-30T14:43:29.240Z</time>
      </trkpt>
      <trkpt lat="51.965566" lon="8.898041">
        <ele>175.611774</ele>
        <time>2026-06-30T14:43:33.115Z</time>
      </trkpt>
      <trkpt lat="51.965411" lon="8.897894">
        <ele>176.290273</ele>
        <time>2026-06-30T14:43:37.605Z</time>
      </trkpt>
      <trkpt lat="51.965277" lon="8.897668">
        <ele>177.020658</ele>
        <time>2026-06-30T14:43:42.370Z</time>
      </trkpt>
      <trkpt lat="51.964774" lon="8.896509">
        <ele>177.950605</ele>
        <time>2026-06-30T14:44:03.077Z</time>
      </trkpt>
      <trkpt lat="51.964595" lon="8.896189">
        <ele>178.154142</ele>
        <time>2026-06-30T14:44:09.046Z</time>
      </trkpt>
      <trkpt lat="51.964542" lon="8.896142">
        <ele>178.200303</ele>
        <time>2026-06-30T14:44:10.378Z</time>
      </trkpt>
      <trkpt lat="51.964390" lon="8.896006">
        <ele>178.332963</ele>
        <time>2026-06-30T14:44:14.203Z</time>
      </trkpt>
      <trkpt lat="51.964298" lon="8.895946">
        <ele>178.408745</ele>
        <time>2026-06-30T14:44:16.386Z</time>
      </trkpt>
      <trkpt lat="51.964390" lon="8.896006">
        <ele>178.484527</ele>
        <time>2026-06-30T14:44:18.535Z</time>
      </trkpt>
      <trkpt lat="51.964542" lon="8.896142">
        <ele>178.617187</ele>
        <time>2026-06-30T14:44:22.341Z</time>
      </trkpt>
      <trkpt lat="51.964595" lon="8.896189">
        <ele>178.663348</ele>
        <time>2026-06-30T14:44:23.661Z</time>
      </trkpt>
      <trkpt lat="51.964774" lon="8.896509">
        <ele>178.311771</ele>
        <time>2026-06-30T14:44:29.369Z</time>
      </trkpt>
      <trkpt lat="51.965277" lon="8.897668">
        <ele>176.381639</ele>
        <time>2026-06-30T14:44:46.025Z</time>
      </trkpt>
      <trkpt lat="51.965411" lon="8.897894">
        <ele>175.954611</ele>
        <time>2026-06-30T14:44:49.414Z</time>
      </trkpt>
      <trkpt lat="51.965566" lon="8.898041">
        <ele>175.557918</ele>
        <time>2026-06-30T14:44:52.488Z</time>
      </trkpt>
      <trkpt lat="51.965714" lon="8.898102">
        <ele>175.220501</ele>
        <time>2026-06-30T14:44:55.053Z</time>
      </trkpt>
      <trkpt lat="51.967891" lon="8.898565">
        <ele>166.611110</ele>
        <time>2026-06-30T14:45:30.436Z</time>
      </trkpt>
      <trkpt lat="51.967927" lon="8.898126">
        <ele>165.987380</ele>
        <time>2026-06-30T14:45:34.860Z</time>
      </trkpt>
      <trkpt lat="51.967991" lon="8.897365">
        <ele>164.905667</ele>
        <time>2026-06-30T14:45:42.785Z</time>
      </trkpt>
      <trkpt lat="51.968064" lon="8.896530">
        <ele>163.717894</ele>
        <time>2026-06-30T14:45:52.121Z</time>
      </trkpt>
      <trkpt lat="51.968073" lon="8.896451">
        <ele>163.604747</ele>
        <time>2026-06-30T14:45:53.062Z</time>
      </trkpt>
      <trkpt lat="51.968104" lon="8.895812">
        <ele>163.030829</ele>
        <time>2026-06-30T14:46:00.970Z</time>
      </trkpt>
      <trkpt lat="51.968208" lon="8.895870">
        <ele>163.158719</ele>
        <time>2026-06-30T14:46:03.219Z</time>
      </trkpt>
      <trkpt lat="51.968319" lon="8.895905">
        <ele>163.290222</ele>
        <time>2026-06-30T14:46:05.608Z</time>
      </trkpt>
      <trkpt lat="51.968803" lon="8.896059">
        <ele>163.863814</ele>
        <time>2026-06-30T14:46:16.624Z</time>
      </trkpt>
      <trkpt lat="51.968907" lon="8.896012">
        <ele>163.989364</ele>
        <time>2026-06-30T14:46:19.117Z</time>
      </trkpt>
      <trkpt lat="51.969886" lon="8.895876">
        <ele>165.168291</ele>
        <time>2026-06-30T14:46:42.242Z</time>
      </trkpt>
      <trkpt lat="51.970246" lon="8.895761">
        <ele>165.723388</ele>
        <time>2026-06-30T14:46:50.870Z</time>
      </trkpt>
      <trkpt lat="51.971341" lon="8.895597">
        <ele>167.387068</ele>
        <time>2026-06-30T14:47:15.866Z</time>
      </trkpt>
      <trkpt lat="51.972870" lon="8.895781">
        <ele>169.621935</ele>
        <time>2026-06-30T14:47:50.621Z</time>
      </trkpt>
      <trkpt lat="51.973129" lon="8.895775">
        <ele>169.996997</ele>
        <time>2026-06-30T14:47:56.616Z</time>
      </trkpt>
      <trkpt lat="51.973832" lon="8.895901">
        <ele>171.837007</ele>
        <time>2026-06-30T14:48:13.237Z</time>
      </trkpt>
      <trkpt lat="51.975468" lon="8.896084">
        <ele>176.695991</ele>
        <time>2026-06-30T14:48:54.176Z</time>
      </trkpt>
      <trkpt lat="51.975990" lon="8.896080">
        <ele>177.773038</ele>
        <time>2026-06-30T14:49:07.191Z</time>
      </trkpt>
      <trkpt lat="51.976527" lon="8.896171">
        <ele>178.887042</ele>
        <time>2026-06-30T14:49:19.767Z</time>
      </trkpt>
      <trkpt lat="51.976549" lon="8.896650">
        <ele>179.497517</ele>
        <time>2026-06-30T14:49:28.036Z</time>
      </trkpt>
      <trkpt lat="51.976775" lon="8.897711">
        <ele>178.809591</ele>
        <time>2026-06-30T14:49:45.956Z</time>
      </trkpt>
      <trkpt lat="51.977304" lon="8.898279">
        <ele>177.740823</ele>
        <time>2026-06-30T14:50:00.502Z</time>
      </trkpt>
      <trkpt lat="51.977397" lon="8.898324">
        <ele>177.577293</ele>
        <time>2026-06-30T14:50:03.429Z</time>
      </trkpt>
      <trkpt lat="51.977783" lon="8.898511">
        <ele>176.898489</ele>
        <time>2026-06-30T14:50:15.849Z</time>
      </trkpt>
      <trkpt lat="51.978050" lon="8.898743">
        <ele>176.771938</ele>
        <time>2026-06-30T14:50:25.682Z</time>
      </trkpt>
      <trkpt lat="51.978291" lon="8.899014">
        <ele>176.833613</ele>
        <time>2026-06-30T14:50:35.655Z</time>
      </trkpt>
      <trkpt lat="51.978448" lon="8.899304">
        <ele>176.883644</ele>
        <time>2026-06-30T14:50:43.875Z</time>
      </trkpt>
      <trkpt lat="51.978626" lon="8.899746">
        <ele>176.952074</ele>
        <time>2026-06-30T14:50:55.134Z</time>
      </trkpt>
      <trkpt lat="51.978710" lon="8.899869">
        <ele>176.975872</ele>
        <time>2026-06-30T14:50:59.020Z</time>
      </trkpt>
      <trkpt lat="51.978871" lon="8.900023">
        <ele>177.015184</ele>
        <time>2026-06-30T14:51:05.366Z</time>
      </trkpt>
      <trkpt lat="51.979035" lon="8.900291">
        <ele>177.064137</ele>
        <time>2026-06-30T14:51:13.197Z</time>
      </trkpt>
      <trkpt lat="51.979199" lon="8.900645">
        <ele>177.272324</ele>
        <time>2026-06-30T14:51:19.643Z</time>
      </trkpt>
      <trkpt lat="51.979248" lon="8.900776">
        <ele>177.509200</ele>
        <time>2026-06-30T14:51:21.897Z</time>
      </trkpt>
      <trkpt lat="51.979536" lon="8.900755">
        <ele>178.232585</ele>
        <time>2026-06-30T14:51:29.033Z</time>
      </trkpt>
      <trkpt lat="51.979728" lon="8.900650">
        <ele>178.740954</ele>
        <time>2026-06-30T14:51:34.047Z</time>
      </trkpt>
      <trkpt lat="51.979838" lon="8.900550">
        <ele>179.057294</ele>
        <time>2026-06-30T14:51:37.173Z</time>
      </trkpt>
      <trkpt lat="51.979897" lon="8.900480">
        <ele>179.240656</ele>
        <time>2026-06-30T14:51:38.951Z</time>
      </trkpt>
      <trkpt lat="51.979987" lon="8.900463">
        <ele>179.468010</ele>
        <time>2026-06-30T14:51:41.180Z</time>
      </trkpt>
      <trkpt lat="51.980551" lon="8.900161">
        <ele>180.958195</ele>
        <time>2026-06-30T14:51:55.728Z</time>
      </trkpt>
      <trkpt lat="51.980677" lon="8.900159">
        <ele>181.274373</ele>
        <time>2026-06-30T14:51:58.765Z</time>
      </trkpt>
      <trkpt lat="51.981064" lon="8.900307">
        <ele>182.497828</ele>
        <time>2026-06-30T14:52:08.379Z</time>
      </trkpt>
      <trkpt lat="51.981585" lon="8.900476">
        <ele>184.293336</ele>
        <time>2026-06-30T14:52:21.400Z</time>
      </trkpt>
      <trkpt lat="51.981755" lon="8.900481">
        <ele>184.867943</ele>
        <time>2026-06-30T14:52:25.603Z</time>
      </trkpt>
      <trkpt lat="51.981958" lon="8.900404">
        <ele>185.572452</ele>
        <time>2026-06-30T14:52:30.801Z</time>
      </trkpt>
      <trkpt lat="51.982811" lon="8.901352">
        <ele>189.386731</ele>
        <time>2026-06-30T14:53:06.883Z</time>
      </trkpt>
      <trkpt lat="51.982919" lon="8.901549">
        <ele>190.064616</ele>
        <time>2026-06-30T14:53:12.706Z</time>
      </trkpt>
      <trkpt lat="51.982954" lon="8.901662">
        <ele>190.389718</ele>
        <time>2026-06-30T14:53:15.466Z</time>
      </trkpt>
      <trkpt lat="51.983184" lon="8.902512">
        <ele>192.776009</ele>
        <time>2026-06-30T14:53:35.460Z</time>
      </trkpt>
      <trkpt lat="51.983295" lon="8.903023">
        <ele>194.168712</ele>
        <time>2026-06-30T14:53:46.887Z</time>
      </trkpt>
      <trkpt lat="51.983279" lon="8.903735">
        <ele>195.480544</ele>
        <time>2026-06-30T14:54:01.621Z</time>
      </trkpt>
      <trkpt lat="51.983279" lon="8.903747">
        <ele>195.491219</ele>
        <time>2026-06-30T14:54:01.869Z</time>
      </trkpt>
      <trkpt lat="51.983190" lon="8.905486">
        <ele>197.043564</ele>
        <time>2026-06-30T14:54:38.068Z</time>
      </trkpt>
      <trkpt lat="51.983055" lon="8.908308">
        <ele>197.533940</ele>
        <time>2026-06-30T14:55:38.336Z</time>
      </trkpt>
      <trkpt lat="51.983058" lon="8.908589">
        <ele>197.495592</ele>
        <time>2026-06-30T14:55:44.006Z</time>
      </trkpt>
      <trkpt lat="51.983235" lon="8.910514">
        <ele>197.163484</ele>
        <time>2026-06-30T14:56:15.552Z</time>
      </trkpt>
      <trkpt lat="51.983428" lon="8.910552">
        <ele>197.104045</ele>
        <time>2026-06-30T14:56:22.255Z</time>
      </trkpt>
      <trkpt lat="51.983511" lon="8.910569">
        <ele>197.078468</ele>
        <time>2026-06-30T14:56:25.157Z</time>
      </trkpt>
      <trkpt lat="51.983575" lon="8.910707">
        <ele>197.045940</ele>
        <time>2026-06-30T14:56:28.851Z</time>
      </trkpt>
      <trkpt lat="51.984167" lon="8.911001">
        <ele>196.856668</ele>
        <time>2026-06-30T14:56:50.169Z</time>
      </trkpt>
      <trkpt lat="51.984262" lon="8.911048">
        <ele>196.953385</ele>
        <time>2026-06-30T14:56:53.555Z</time>
      </trkpt>
      <trkpt lat="51.984200" lon="8.911153">
        <ele>197.046474</ele>
        <time>2026-06-30T14:56:56.072Z</time>
      </trkpt>
      <trkpt lat="51.985061" lon="8.911493">
        <ele>197.967216</ele>
        <time>2026-06-30T14:57:15.839Z</time>
      </trkpt>
      <trkpt lat="51.985092" lon="8.911508">
        <ele>198.000828</ele>
        <time>2026-06-30T14:57:16.580Z</time>
      </trkpt>
      <trkpt lat="51.986348" lon="8.911999">
        <ele>199.233888</ele>
        <time>2026-06-30T14:57:46.221Z</time>
      </trkpt>
      <trkpt lat="51.986456" lon="8.912047">
        <ele>199.329689</ele>
        <time>2026-06-30T14:57:48.768Z</time>
      </trkpt>
      <trkpt lat="51.986654" lon="8.912150">
        <ele>199.507574</ele>
        <time>2026-06-30T14:57:53.460Z</time>
      </trkpt>
      <trkpt lat="51.986681" lon="8.912204">
        <ele>199.544223</ele>
        <time>2026-06-30T14:57:54.436Z</time>
      </trkpt>
      <trkpt lat="51.986776" lon="8.912263">
        <ele>199.631245</ele>
        <time>2026-06-30T14:57:56.697Z</time>
      </trkpt>
      <trkpt lat="51.986815" lon="8.912242">
        <ele>199.666399</ele>
        <time>2026-06-30T14:57:57.626Z</time>
      </trkpt>
      <trkpt lat="51.986889" lon="8.912287">
        <ele>199.734006</ele>
        <time>2026-06-30T14:57:59.377Z</time>
      </trkpt>
      <trkpt lat="51.986994" lon="8.912169">
        <ele>199.843258</ele>
        <time>2026-06-30T14:58:02.929Z</time>
      </trkpt>
      <trkpt lat="51.987144" lon="8.912243">
        <ele>199.977386</ele>
        <time>2026-06-30T14:58:07.300Z</time>
      </trkpt>
      <trkpt lat="51.987535" lon="8.912427">
        <ele>200.242969</ele>
        <time>2026-06-30T14:58:18.569Z</time>
      </trkpt>
      <trkpt lat="51.987814" lon="8.912547">
        <ele>200.163868</ele>
        <time>2026-06-30T14:58:26.443Z</time>
      </trkpt>
      <trkpt lat="51.988264" lon="8.912732">
        <ele>200.036648</ele>
        <time>2026-06-30T14:58:39.073Z</time>
      </trkpt>
      <trkpt lat="51.988550" lon="8.912853">
        <ele>199.955649</ele>
        <time>2026-06-30T14:58:47.160Z</time>
      </trkpt>
      <trkpt lat="51.988897" lon="8.912995">
        <ele>199.857576</ele>
        <time>2026-06-30T14:58:56.989Z</time>
      </trkpt>
      <trkpt lat="51.989766" lon="8.913366">
        <ele>198.947007</ele>
        <time>2026-06-30T14:59:20.882Z</time>
      </trkpt>
      <trkpt lat="51.989966" lon="8.912366">
        <ele>198.027106</ele>
        <time>2026-06-30T14:59:33.077Z</time>
      </trkpt>
      <trkpt lat="51.990572" lon="8.912622">
        <ele>197.093999</ele>
        <time>2026-06-30T14:59:43.847Z</time>
      </trkpt>
      <trkpt lat="51.990911" lon="8.911169">
        <ele>194.968917</ele>
        <time>2026-06-30T15:00:00.346Z</time>
      </trkpt>
      <trkpt lat="51.990948" lon="8.910858">
        <ele>194.535706</ele>
        <time>2026-06-30T15:00:03.686Z</time>
      </trkpt>
      <trkpt lat="51.991226" lon="8.910948">
        <ele>193.906116</ele>
        <time>2026-06-30T15:00:12.424Z</time>
      </trkpt>
      <trkpt lat="51.991478" lon="8.911029">
        <ele>193.335563</ele>
        <time>2026-06-30T15:00:20.381Z</time>
      </trkpt>
      <trkpt lat="51.991520" lon="8.911041">
        <ele>193.240848</ele>
        <time>2026-06-30T15:00:21.700Z</time>
      </trkpt>
      <trkpt lat="51.991760" lon="8.911136">
        <ele>192.883202</ele>
        <time>2026-06-30T15:00:29.407Z</time>
      </trkpt>
      <trkpt lat="51.991847" lon="8.911038">
        <ele>192.733170</ele>
        <time>2026-06-30T15:00:32.764Z</time>
      </trkpt>
      <trkpt lat="51.991920" lon="8.910908">
        <ele>192.579656</ele>
        <time>2026-06-30T15:00:34.832Z</time>
      </trkpt>
      <trkpt lat="51.992194" lon="8.910227">
        <ele>191.869855</ele>
        <time>2026-06-30T15:00:44.920Z</time>
      </trkpt>
      <trkpt lat="51.992233" lon="8.910065">
        <ele>191.718085</ele>
        <time>2026-06-30T15:00:47.109Z</time>
      </trkpt>
      <trkpt lat="51.992260" lon="8.909682">
        <ele>191.381720</ele>
        <time>2026-06-30T15:00:51.928Z</time>
      </trkpt>
      <trkpt lat="51.992231" lon="8.909092">
        <ele>190.865284</ele>
        <time>2026-06-30T15:00:59.300Z</time>
      </trkpt>
      <trkpt lat="51.992236" lon="8.908820">
        <ele>190.600006</ele>
        <time>2026-06-30T15:01:02.538Z</time>
      </trkpt>
      <trkpt lat="51.992257" lon="8.908738">
        <ele>190.472705</ele>
        <time>2026-06-30T15:01:03.580Z</time>
      </trkpt>
      <trkpt lat="51.992339" lon="8.908703">
        <ele>190.275337</ele>
        <time>2026-06-30T15:01:05.196Z</time>
      </trkpt>
      <trkpt lat="51.992523" lon="8.908687">
        <ele>189.846395</ele>
        <time>2026-06-30T15:01:08.631Z</time>
      </trkpt>
      <trkpt lat="51.992917" lon="8.908654">
        <ele>188.927995</ele>
        <time>2026-06-30T15:01:15.965Z</time>
      </trkpt>
      <trkpt lat="51.992941" lon="8.908128">
        <ele>188.171956</ele>
        <time>2026-06-30T15:01:21.520Z</time>
      </trkpt>
      <trkpt lat="51.993143" lon="8.907394">
        <ele>187.019537</ele>
        <time>2026-06-30T15:01:29.614Z</time>
      </trkpt>
      <trkpt lat="51.993153" lon="8.907360">
        <ele>186.965528</ele>
        <time>2026-06-30T15:01:29.992Z</time>
      </trkpt>
      <trkpt lat="51.993258" lon="8.906999">
        <ele>186.380986</ele>
        <time>2026-06-30T15:01:34.042Z</time>
      </trkpt>
      <trkpt lat="51.993483" lon="8.906204">
        <ele>184.957684</ele>
        <time>2026-06-30T15:01:43.005Z</time>
      </trkpt>
      <trkpt lat="51.993499" lon="8.906154">
        <ele>184.866021</ele>
        <time>2026-06-30T15:01:43.595Z</time>
      </trkpt>
      <trkpt lat="51.993842" lon="8.904898">
        <ele>182.630955</ele>
        <time>2026-06-30T15:01:57.695Z</time>
      </trkpt>
      <trkpt lat="51.993944" lon="8.904383">
        <ele>181.750935</ele>
        <time>2026-06-30T15:02:03.399Z</time>
      </trkpt>
      <trkpt lat="51.994158" lon="8.903219">
        <ele>181.070775</ele>
        <time>2026-06-30T15:02:16.868Z</time>
      </trkpt>
      <trkpt lat="51.994216" lon="8.902949">
        <ele>180.913548</ele>
        <time>2026-06-30T15:02:20.161Z</time>
      </trkpt>
      <trkpt lat="51.994290" lon="8.902770">
        <ele>180.795004</ele>
        <time>2026-06-30T15:02:22.668Z</time>
      </trkpt>
      <trkpt lat="51.994534" lon="8.902433">
        <ele>180.508991</ele>
        <time>2026-06-30T15:02:29.044Z</time>
      </trkpt>
      <trkpt lat="51.994682" lon="8.902111">
        <ele>180.288063</ele>
        <time>2026-06-30T15:02:34.324Z</time>
      </trkpt>
      <trkpt lat="51.994759" lon="8.901738">
        <ele>180.226614</ele>
        <time>2026-06-30T15:02:39.753Z</time>
      </trkpt>
      <trkpt lat="51.994783" lon="8.901377">
        <ele>180.593326</ele>
        <time>2026-06-30T15:02:44.869Z</time>
      </trkpt>
      <trkpt lat="51.994764" lon="8.901168">
        <ele>180.806695</ele>
        <time>2026-06-30T15:02:47.854Z</time>
      </trkpt>
      <trkpt lat="51.994718" lon="8.901004">
        <ele>180.988703</ele>
        <time>2026-06-30T15:02:50.404Z</time>
      </trkpt>
      <trkpt lat="51.994482" lon="8.900358">
        <ele>181.747329</ele>
        <time>2026-06-30T15:03:00.984Z</time>
      </trkpt>
      <trkpt lat="51.994441" lon="8.900165">
        <ele>181.953526</ele>
        <time>2026-06-30T15:03:03.901Z</time>
      </trkpt>
      <trkpt lat="51.994431" lon="8.899889">
        <ele>182.232758</ele>
        <time>2026-06-30T15:03:07.868Z</time>
      </trkpt>
      <trkpt lat="51.994517" lon="8.899390">
        <ele>182.756097</ele>
        <time>2026-06-30T15:03:15.547Z</time>
      </trkpt>
      <trkpt lat="51.994562" lon="8.898798">
        <ele>183.001109</ele>
        <time>2026-06-30T15:03:24.433Z</time>
      </trkpt>
      <trkpt lat="51.994539" lon="8.898609">
        <ele>182.949041</ele>
        <time>2026-06-30T15:03:27.212Z</time>
      </trkpt>
      <trkpt lat="51.994500" lon="8.898486">
        <ele>182.911650</ele>
        <time>2026-06-30T15:03:29.190Z</time>
      </trkpt>
      <trkpt lat="51.994380" lon="8.898314">
        <ele>182.841400</ele>
        <time>2026-06-30T15:03:32.811Z</time>
      </trkpt>
      <trkpt lat="51.993952" lon="8.898058">
        <ele>182.641204</ele>
        <time>2026-06-30T15:03:42.481Z</time>
      </trkpt>
      <trkpt lat="51.993823" lon="8.897890">
        <ele>182.568626</ele>
        <time>2026-06-30T15:03:45.750Z</time>
      </trkpt>
      <trkpt lat="51.994244" lon="8.896730">
        <ele>181.493466</ele>
        <time>2026-06-30T15:03:59.913Z</time>
      </trkpt>
      <trkpt lat="51.994982" lon="8.894548">
        <ele>175.011777</ele>
        <time>2026-06-30T15:04:23.169Z</time>
      </trkpt>
      <trkpt lat="51.995020" lon="8.894431">
        <ele>174.670816</ele>
        <time>2026-06-30T15:04:24.428Z</time>
      </trkpt>
      <trkpt lat="51.995272" lon="8.893630">
        <ele>172.892934</ele>
        <time>2026-06-30T15:04:33.164Z</time>
      </trkpt>
      <trkpt lat="51.995284" lon="8.893587">
        <ele>172.799622</ele>
        <time>2026-06-30T15:04:33.637Z</time>
      </trkpt>
      <trkpt lat="51.995786" lon="8.891862">
        <ele>169.028522</ele>
        <time>2026-06-30T15:04:53.288Z</time>
      </trkpt>
      <trkpt lat="51.995945" lon="8.891301">
        <ele>167.833975</ele>
        <time>2026-06-30T15:04:59.751Z</time>
      </trkpt>
      <trkpt lat="51.995957" lon="8.891258">
        <ele>167.742877</ele>
        <time>2026-06-30T15:05:00.249Z</time>
      </trkpt>
      <trkpt lat="51.996003" lon="8.891135">
        <ele>167.465186</ele>
        <time>2026-06-30T15:05:01.727Z</time>
      </trkpt>
      <trkpt lat="51.996241" lon="8.890723">
        <ele>166.375079</ele>
        <time>2026-06-30T15:05:07.515Z</time>
      </trkpt>
      <trkpt lat="51.997493" lon="8.888709">
        <ele>160.653760</ele>
        <time>2026-06-30T15:05:35.883Z</time>
      </trkpt>
      <trkpt lat="51.997874" lon="8.888308">
        <ele>159.113947</ele>
        <time>2026-06-30T15:05:43.159Z</time>
      </trkpt>
      <trkpt lat="51.997973" lon="8.888169">
        <ele>158.670106</ele>
        <time>2026-06-30T15:05:45.267Z</time>
      </trkpt>
      <trkpt lat="51.998015" lon="8.888029">
        <ele>158.344899</ele>
        <time>2026-06-30T15:05:46.807Z</time>
      </trkpt>
      <trkpt lat="51.998395" lon="8.886186">
        <ele>154.961434</ele>
        <time>2026-06-30T15:06:06.316Z</time>
      </trkpt>
      <trkpt lat="51.998641" lon="8.884997">
        <ele>152.955223</ele>
        <time>2026-06-30T15:06:19.273Z</time>
      </trkpt>
      <trkpt lat="51.998990" lon="8.883672">
        <ele>152.335130</ele>
        <time>2026-06-30T15:06:36.586Z</time>
      </trkpt>
      <trkpt lat="51.998959" lon="8.883629">
        <ele>152.325781</ele>
        <time>2026-06-30T15:06:37.478Z</time>
      </trkpt>
      <trkpt lat="51.998911" lon="8.883232">
        <ele>152.268660</ele>
        <time>2026-06-30T15:06:42.874Z</time>
      </trkpt>
      <trkpt lat="51.998883" lon="8.883154">
        <ele>152.255912</ele>
        <time>2026-06-30T15:06:44.091Z</time>
      </trkpt>
      <trkpt lat="51.998332" lon="8.883193">
        <ele>152.129438</ele>
        <time>2026-06-30T15:06:56.330Z</time>
      </trkpt>
      <trkpt lat="51.998164" lon="8.883264">
        <ele>152.089630</ele>
        <time>2026-06-30T15:07:00.201Z</time>
      </trkpt>
      <trkpt lat="51.998112" lon="8.883259">
        <ele>152.033681</ele>
        <time>2026-06-30T15:07:01.380Z</time>
      </trkpt>
      <trkpt lat="51.998071" lon="8.883126">
        <ele>151.898853</ele>
        <time>2026-06-30T15:07:03.382Z</time>
      </trkpt>
      <trkpt lat="51.998084" lon="8.882605">
        <ele>151.426193</ele>
        <time>2026-06-30T15:07:10.228Z</time>
      </trkpt>
      <trkpt lat="51.998086" lon="8.882551">
        <ele>151.377155</ele>
        <time>2026-06-30T15:07:10.910Z</time>
      </trkpt>
      <trkpt lat="51.998129" lon="8.882500">
        <ele>151.298763</ele>
        <time>2026-06-30T15:07:11.972Z</time>
      </trkpt>
      <trkpt lat="51.998296" lon="8.882507">
        <ele>151.052809</ele>
        <time>2026-06-30T15:07:15.247Z</time>
      </trkpt>
      <trkpt lat="51.998335" lon="8.882430">
        <ele>150.962427</ele>
        <time>2026-06-30T15:07:16.423Z</time>
      </trkpt>
      <trkpt lat="51.998669" lon="8.882471">
        <ele>150.469279</ele>
        <time>2026-06-30T15:07:22.439Z</time>
      </trkpt>
      <trkpt lat="51.998997" lon="8.882511">
        <ele>149.985008</ele>
        <time>2026-06-30T15:07:28.006Z</time>
      </trkpt>
      <trkpt lat="51.999377" lon="8.882461">
        <ele>149.405277</ele>
        <time>2026-06-30T15:07:34.290Z</time>
      </trkpt>
      <trkpt lat="52.001332" lon="8.881605">
        <ele>142.649198</ele>
        <time>2026-06-30T15:08:06.751Z</time>
      </trkpt>
      <trkpt lat="52.001400" lon="8.881540">
        <ele>142.432517</ele>
        <time>2026-06-30T15:08:08.040Z</time>
      </trkpt>
      <trkpt lat="52.001486" lon="8.881356">
        <ele>142.041934</ele>
        <time>2026-06-30T15:08:10.346Z</time>
      </trkpt>
      <trkpt lat="52.001563" lon="8.881096">
        <ele>141.554136</ele>
        <time>2026-06-30T15:08:13.237Z</time>
      </trkpt>
      <trkpt lat="52.001944" lon="8.879593">
        <ele>138.806050</ele>
        <time>2026-06-30T15:08:30.279Z</time>
      </trkpt>
      <trkpt lat="52.001995" lon="8.879410">
        <ele>138.466431</ele>
        <time>2026-06-30T15:08:32.428Z</time>
      </trkpt>
      <trkpt lat="52.002081" lon="8.879296">
        <ele>138.187495</ele>
        <time>2026-06-30T15:08:34.356Z</time>
      </trkpt>
      <trkpt lat="52.002119" lon="8.879260">
        <ele>138.082718</ele>
        <time>2026-06-30T15:08:35.130Z</time>
      </trkpt>
      <trkpt lat="52.002314" lon="8.879618">
        <ele>137.381805</ele>
        <time>2026-06-30T15:08:40.211Z</time>
      </trkpt>
      <trkpt lat="52.002399" lon="8.879835">
        <ele>137.004669</ele>
        <time>2026-06-30T15:08:42.946Z</time>
      </trkpt>
      <trkpt lat="52.002496" lon="8.880044">
        <ele>136.620880</ele>
        <time>2026-06-30T15:08:45.702Z</time>
      </trkpt>
      <trkpt lat="52.002576" lon="8.880143">
        <ele>136.381339</ele>
        <time>2026-06-30T15:08:47.433Z</time>
      </trkpt>
      <trkpt lat="52.002616" lon="8.880257">
        <ele>136.188936</ele>
        <time>2026-06-30T15:08:48.825Z</time>
      </trkpt>
      <trkpt lat="52.002671" lon="8.880405">
        <ele>135.935450</ele>
        <time>2026-06-30T15:08:50.669Z</time>
      </trkpt>
      <trkpt lat="52.002851" lon="8.880812">
        <ele>135.200634</ele>
        <time>2026-06-30T15:08:55.972Z</time>
      </trkpt>
      <trkpt lat="52.003177" lon="8.881314">
        <ele>134.130721</ele>
        <time>2026-06-30T15:09:03.537Z</time>
      </trkpt>
      <trkpt lat="52.003678" lon="8.881815">
        <ele>132.997605</ele>
        <time>2026-06-30T15:09:13.487Z</time>
      </trkpt>
      <trkpt lat="52.004817" lon="8.882645">
        <ele>130.628823</ele>
        <time>2026-06-30T15:09:35.952Z</time>
      </trkpt>
      <trkpt lat="52.004997" lon="8.882718">
        <ele>130.424194</ele>
        <time>2026-06-30T15:09:39.508Z</time>
      </trkpt>
      <trkpt lat="52.005948" lon="8.883388">
        <ele>129.280866</ele>
        <time>2026-06-30T15:09:59.403Z</time>
      </trkpt>
      <trkpt lat="52.006531" lon="8.883775">
        <ele>128.605767</ele>
        <time>2026-06-30T15:10:11.730Z</time>
      </trkpt>
      <trkpt lat="52.007535" lon="8.884509">
        <ele>127.712786</ele>
        <time>2026-06-30T15:10:33.361Z</time>
      </trkpt>
      <trkpt lat="52.008486" lon="8.885194">
        <ele>126.761792</ele>
        <time>2026-06-30T15:10:54.009Z</time>
      </trkpt>
      <trkpt lat="52.009597" lon="8.885983">
        <ele>125.460881</ele>
        <time>2026-06-30T15:11:17.407Z</time>
      </trkpt>
      <trkpt lat="52.009617" lon="8.886102">
        <ele>125.379416</ele>
        <time>2026-06-30T15:11:18.809Z</time>
      </trkpt>
      <trkpt lat="52.009647" lon="8.886205">
        <ele>125.304163</ele>
        <time>2026-06-30T15:11:20.063Z</time>
      </trkpt>
      <trkpt lat="52.009721" lon="8.886206">
        <ele>125.200974</ele>
        <time>2026-06-30T15:11:21.401Z</time>
      </trkpt>
      <trkpt lat="52.009774" lon="8.886245">
        <ele>125.106751</ele>
        <time>2026-06-30T15:11:22.448Z</time>
      </trkpt>
      <trkpt lat="52.010010" lon="8.886411">
        <ele>124.690285</ele>
        <time>2026-06-30T15:11:27.057Z</time>
      </trkpt>
      <trkpt lat="52.010312" lon="8.886635">
        <ele>124.152661</ele>
        <time>2026-06-30T15:11:32.953Z</time>
      </trkpt>
      <trkpt lat="52.010342" lon="8.886657">
        <ele>124.099358</ele>
        <time>2026-06-30T15:11:33.532Z</time>
      </trkpt>
      <trkpt lat="52.010708" lon="8.886917">
        <ele>123.452466</ele>
        <time>2026-06-30T15:11:40.574Z</time>
      </trkpt>
      <trkpt lat="52.011435" lon="8.887446">
        <ele>122.219631</ele>
        <time>2026-06-30T15:11:55.113Z</time>
      </trkpt>
      <trkpt lat="52.011734" lon="8.887663">
        <ele>121.843808</ele>
        <time>2026-06-30T15:12:01.414Z</time>
      </trkpt>
      <trkpt lat="52.012279" lon="8.888038">
        <ele>121.164568</ele>
        <time>2026-06-30T15:12:13.023Z</time>
      </trkpt>
      <trkpt lat="52.013664" lon="8.889043">
        <ele>119.150008</ele>
        <time>2026-06-30T15:12:41.967Z</time>
      </trkpt>
      <trkpt lat="52.013952" lon="8.889250">
        <ele>118.674963</ele>
        <time>2026-06-30T15:12:47.524Z</time>
      </trkpt>
      <trkpt lat="52.014368" lon="8.889550">
        <ele>117.988412</ele>
        <time>2026-06-30T15:12:55.709Z</time>
      </trkpt>
      <trkpt lat="52.014677" lon="8.889770">
        <ele>117.481642</ele>
        <time>2026-06-30T15:13:01.852Z</time>
      </trkpt>
      <trkpt lat="52.014929" lon="8.889950">
        <ele>117.075081</ele>
        <time>2026-06-30T15:13:06.783Z</time>
      </trkpt>
      <trkpt lat="52.014894" lon="8.890106">
        <ele>116.924152</ele>
        <time>2026-06-30T15:13:08.605Z</time>
      </trkpt>
      <trkpt lat="52.014902" lon="8.890264">
        <ele>116.780047</ele>
        <time>2026-06-30T15:13:10.348Z</time>
      </trkpt>
      <trkpt lat="52.015238" lon="8.891094">
        <ele>115.877021</ele>
        <time>2026-06-30T15:13:21.303Z</time>
      </trkpt>
      <trkpt lat="52.015777" lon="8.892400">
        <ele>114.723568</ele>
        <time>2026-06-30T15:13:39.844Z</time>
      </trkpt>
      <trkpt lat="52.016211" lon="8.893452">
        <ele>114.237896</ele>
        <time>2026-06-30T15:13:55.435Z</time>
      </trkpt>
      <trkpt lat="52.016417" lon="8.893996">
        <ele>113.992957</ele>
        <time>2026-06-30T15:14:03.589Z</time>
      </trkpt>
      <trkpt lat="52.016678" lon="8.894870">
        <ele>113.796188</ele>
        <time>2026-06-30T15:14:15.838Z</time>
      </trkpt>
      <trkpt lat="52.016712" lon="8.894966">
        <ele>113.794346</ele>
        <time>2026-06-30T15:14:17.214Z</time>
      </trkpt>
      <trkpt lat="52.016800" lon="8.895210">
        <ele>113.789641</ele>
        <time>2026-06-30T15:14:20.738Z</time>
      </trkpt>
      <trkpt lat="52.016916" lon="8.895413">
        <ele>113.785034</ele>
        <time>2026-06-30T15:14:24.222Z</time>
      </trkpt>
      <trkpt lat="52.017073" lon="8.895568">
        <ele>113.780068</ele>
        <time>2026-06-30T15:14:28.049Z</time>
      </trkpt>
      <trkpt lat="52.017411" lon="8.895903">
        <ele>113.769368</ele>
        <time>2026-06-30T15:14:36.376Z</time>
      </trkpt>
      <trkpt lat="52.017625" lon="8.896164">
        <ele>113.762136</ele>
        <time>2026-06-30T15:14:42.021Z</time>
      </trkpt>
      <trkpt lat="52.017698" lon="8.896259">
        <ele>113.759608</ele>
        <time>2026-06-30T15:14:44.023Z</time>
      </trkpt>
      <trkpt lat="52.018011" lon="8.896748">
        <ele>113.990285</ele>
        <time>2026-06-30T15:14:53.533Z</time>
      </trkpt>
      <trkpt lat="52.018370" lon="8.897258">
        <ele>114.384641</ele>
        <time>2026-06-30T15:15:04.263Z</time>
      </trkpt>
      <trkpt lat="52.018432" lon="8.897310">
        <ele>114.442342</ele>
        <time>2026-06-30T15:15:05.836Z</time>
      </trkpt>
      <trkpt lat="52.018499" lon="8.897354">
        <ele>114.502104</ele>
        <time>2026-06-30T15:15:07.485Z</time>
      </trkpt>
      <trkpt lat="52.019129" lon="8.897880">
        <ele>115.087862</ele>
        <time>2026-06-30T15:15:23.460Z</time>
      </trkpt>
      <trkpt lat="52.019296" lon="8.897967">
        <ele>115.232894</ele>
        <time>2026-06-30T15:15:27.395Z</time>
      </trkpt>
      <trkpt lat="52.019676" lon="8.898034">
        <ele>114.979274</ele>
        <time>2026-06-30T15:15:35.899Z</time>
      </trkpt>
      <trkpt lat="52.019783" lon="8.898084">
        <ele>114.899910</ele>
        <time>2026-06-30T15:15:38.356Z</time>
      </trkpt>
      <trkpt lat="52.020279" lon="8.898426">
        <ele>114.515838</ele>
        <time>2026-06-30T15:15:49.792Z</time>
      </trkpt>
      <trkpt lat="52.020901" lon="8.898928">
        <ele>114.020789</ele>
        <time>2026-06-30T15:16:02.734Z</time>
      </trkpt>
      <trkpt lat="52.020953" lon="8.898970">
        <ele>113.979396</ele>
        <time>2026-06-30T15:16:03.728Z</time>
      </trkpt>
      <trkpt lat="52.021224" lon="8.899213">
        <ele>112.621688</ele>
        <time>2026-06-30T15:16:08.729Z</time>
      </trkpt>
      <trkpt lat="52.021367" lon="8.899321">
        <ele>111.876967</ele>
        <time>2026-06-30T15:16:11.183Z</time>
      </trkpt>
      <trkpt lat="52.021981" lon="8.899493">
        <ele>108.934454</ele>
        <time>2026-06-30T15:16:20.517Z</time>
      </trkpt>
      <trkpt lat="52.022332" lon="8.899593">
        <ele>107.251501</ele>
        <time>2026-06-30T15:16:25.824Z</time>
      </trkpt>
      <trkpt lat="52.022670" lon="8.899678">
        <ele>105.636224</ele>
        <time>2026-06-30T15:16:30.791Z</time>
      </trkpt>
      <trkpt lat="52.022683" lon="8.899617">
        <ele>105.454091</ele>
        <time>2026-06-30T15:16:31.367Z</time>
      </trkpt>
      <trkpt lat="52.022705" lon="8.899513">
        <ele>105.232699</ele>
        <time>2026-06-30T15:16:32.374Z</time>
      </trkpt>
      <trkpt lat="52.022801" lon="8.899414">
        <ele>104.860733</ele>
        <time>2026-06-30T15:16:34.037Z</time>
      </trkpt>
      <trkpt lat="52.022794" lon="8.899612">
        <ele>104.461475</ele>
        <time>2026-06-30T15:16:35.852Z</time>
      </trkpt>
      <trkpt lat="52.022794" lon="8.899637">
        <ele>104.411147</ele>
        <time>2026-06-30T15:16:36.087Z</time>
      </trkpt>
      <trkpt lat="52.022793" lon="8.899667">
        <ele>104.350664</ele>
        <time>2026-06-30T15:16:36.368Z</time>
      </trkpt>
      <trkpt lat="52.022792" lon="8.899707">
        <ele>104.270072</ele>
        <time>2026-06-30T15:16:36.740Z</time>
      </trkpt>
      <trkpt lat="52.022797" lon="8.899796">
        <ele>104.090158</ele>
        <time>2026-06-30T15:16:37.575Z</time>
      </trkpt>
      <trkpt lat="52.022828" lon="8.899981">
        <ele>103.704167</ele>
        <time>2026-06-30T15:16:39.376Z</time>
      </trkpt>
      <trkpt lat="52.022901" lon="8.899961">
        <ele>103.461974</ele>
        <time>2026-06-30T15:16:40.927Z</time>
      </trkpt>
      <trkpt lat="52.023110" lon="8.899839">
        <ele>102.735451</ele>
        <time>2026-06-30T15:16:45.731Z</time>
      </trkpt>
      <trkpt lat="52.023131" lon="8.899826">
        <ele>102.661933</ele>
        <time>2026-06-30T15:16:46.226Z</time>
      </trkpt>
      <trkpt lat="52.023550" lon="8.899572">
        <ele>101.198896</ele>
        <time>2026-06-30T15:16:56.661Z</time>
      </trkpt>
      <trkpt lat="52.023567" lon="8.899562">
        <ele>101.139748</ele>
        <time>2026-06-30T15:16:57.098Z</time>
      </trkpt>
      <trkpt lat="52.023683" lon="8.899522">
        <ele>100.751801</ele>
        <time>2026-06-30T15:17:00.082Z</time>
      </trkpt>
      <trkpt lat="52.023849" lon="8.899407">
        <ele>100.161441</ele>
        <time>2026-06-30T15:17:03.546Z</time>
      </trkpt>
      <trkpt lat="52.024068" lon="8.899374">
        <ele>99.566708</ele>
        <time>2026-06-30T15:17:07.690Z</time>
      </trkpt>
      <trkpt lat="52.024100" lon="8.899368">
        <ele>99.555140</ele>
        <time>2026-06-30T15:17:08.349Z</time>
      </trkpt>
      <trkpt lat="52.024077" lon="8.899614">
        <ele>99.500157</ele>
        <time>2026-06-30T15:17:11.500Z</time>
      </trkpt>
      <trkpt lat="52.023986" lon="8.901106">
        <ele>99.168852</ele>
        <time>2026-06-30T15:17:30.963Z</time>
      </trkpt>
      <trkpt lat="52.023918" lon="8.901989">
        <ele>98.972212</ele>
        <time>2026-06-30T15:17:42.262Z</time>
      </trkpt>
      <trkpt lat="52.023946" lon="8.903493">
        <ele>98.659499</ele>
        <time>2026-06-30T15:18:00.930Z</time>
      </trkpt>
      <trkpt lat="52.023892" lon="8.904000">
        <ele>98.553387</ele>
        <time>2026-06-30T15:18:07.394Z</time>
      </trkpt>
      <trkpt lat="52.023872" lon="8.904100">
        <ele>98.531702</ele>
        <time>2026-06-30T15:18:08.719Z</time>
      </trkpt>
      <trkpt lat="52.023851" lon="8.904259">
        <ele>98.498165</ele>
        <time>2026-06-30T15:18:10.801Z</time>
      </trkpt>
      <trkpt lat="52.023846" lon="8.904631">
        <ele>98.421429</ele>
        <time>2026-06-30T15:18:15.560Z</time>
      </trkpt>
      <trkpt lat="52.023984" lon="8.905573">
        <ele>98.333372</ele>
        <time>2026-06-30T15:18:27.988Z</time>
      </trkpt>
      <trkpt lat="52.024136" lon="8.906030">
        <ele>98.333372</ele>
        <time>2026-06-30T15:18:34.536Z</time>
      </trkpt>
      <trkpt lat="52.024340" lon="8.906308">
        <ele>98.333372</ele>
        <time>2026-06-30T15:18:39.955Z</time>
      </trkpt>
      <trkpt lat="52.024396" lon="8.906385">
        <ele>98.333372</ele>
        <time>2026-06-30T15:18:41.473Z</time>
      </trkpt>
      <trkpt lat="52.024216" lon="8.906957">
        <ele>98.333372</ele>
        <time>2026-06-30T15:18:50.524Z</time>
      </trkpt>
      <trkpt lat="52.024320" lon="8.907016">
        <ele>98.333372</ele>
        <time>2026-06-30T15:18:58.179Z</time>
      </trkpt>
    </trkseg>
  </trk>
</gpx>